Observation data for Segovia 7SSW on 08/10/2020      Previous  Date  Next       Current Mesonet Observations  Soil Data  Daily Summary Page  Observations in Plain Language
KSE2 100500Z 16008KT 27/17 A3009 RMK A01 T02720170  RH  054%=      5-min Rain = 0
KSE2 100501Z 15007KT 27/17 A3009 RMK A01 T02710170  RH  054%=      5-min Rain = 0
KSE2 100502Z 16009KT 27/17 A3009 RMK A01 T02710170  RH  054%=      5-min Rain = 0
KSE2 100503Z 16008KT 27/17 A3009 RMK A01 T02710169  RH  054%=      5-min Rain = 0
KSE2 100504Z 17008KT 27/17 A3009 RMK A01 T02710170  RH  054%=      5-min Rain = 0
KSE2 100505Z 17008KT 27/17 A3009 RMK A01 T02710170  RH  054%=      5-min Rain = 0
KSE2 100506Z 16009KT 27/17 A3009 RMK A01 T02710170  RH  054%=      5-min Rain = 0
KSE2 100507Z 16008KT 27/17 A3009 RMK A01 T02700170  RH  054%=      5-min Rain = 0
KSE2 100508Z 16008KT 27/17 A3009 RMK A01 T02700169  RH  054%=      5-min Rain = 0
KSE2 100509Z 15008KT 27/17 A3009 RMK A01 T02710170  RH  054%=      5-min Rain = 0
KSE2 100510Z 15007KT 27/17 A3009 RMK A01 T02700170  RH  054%=      5-min Rain = 0
KSE2 100511Z 16011KT 27/17 A3009 RMK A01 T02700170  RH  054%=      5-min Rain = 0
KSE2 100512Z 15009KT 27/17 A301 RMK A01 T02700170  RH  054%=      5-min Rain = 0
KSE2 100513Z 16009KT 27/17 A301 RMK A01 T02700170  RH  054%=      5-min Rain = 0
KSE2 100514Z 17009KT 27/17 A301 RMK A01 T02710170  RH  054%=      5-min Rain = 0
KSE2 100515Z 17008KT 27/17 A301 RMK A01 T02700170  RH  054%=      5-min Rain = 0
KSE2 100516Z 16007KT 27/17 A301 RMK A01 T02700170  RH  054%=      5-min Rain = 0
KSE2 100517Z 15009KT 27/17 A3009 RMK A01 T02700170  RH  054%=      5-min Rain = 0
KSE2 100518Z 16008KT 27/17 A3009 RMK A01 T02700170  RH  054%=      5-min Rain = 0
KSE2 100519Z 15010KT 27/17 A3009 RMK A01 T02700170  RH  054%=      5-min Rain = 0
KSE2 100520Z 15008KT 27/17 A3009 RMK A01 T02700170  RH  054%=      5-min Rain = 0
KSE2 100521Z 16009KT 27/17 A3009 RMK A01 T02700170  RH  054%=      5-min Rain = 0
KSE2 100522Z 16009KT 27/17 A3009 RMK A01 T02690170  RH  054%=      5-min Rain = 0
KSE2 100523Z 15007KT 27/17 A301 RMK A01 T02690170  RH  055%=      5-min Rain = 0
KSE2 100524Z 15009KT 27/17 A301 RMK A01 T02690170  RH  055%=      5-min Rain = 0
KSE2 100525Z 16008KT 27/17 A301 RMK A01 T02690170  RH  055%=      5-min Rain = 0
KSE2 100526Z 17006KT 27/17 A301 RMK A01 T02690170  RH  055%=      5-min Rain = 0
KSE2 100527Z 17006KT 27/17 A301 RMK A01 T02680170  RH  055%=      5-min Rain = 0
KSE2 100528Z 17006KT 27/17 A301 RMK A01 T02680170  RH  055%=      5-min Rain = 0
KSE2 100529Z 15007KT 27/17 A301 RMK A01 T02680170  RH  055%=      5-min Rain = 0
KSE2 100530Z 16007KT 27/17 A301 RMK A01 T02670170  RH  055%=      5-min Rain = 0
KSE2 100531Z 16007KT 27/17 A301 RMK A01 T02660169  RH  055%=      5-min Rain = 0
KSE2 100532Z 16006KT 27/17 A301 RMK A01 T02660170  RH  055%=      5-min Rain = 0
KSE2 100533Z 16006KT 27/17 A301 RMK A01 T02660169  RH  055%=      5-min Rain = 0
KSE2 100534Z 15007KT 27/17 A301 RMK A01 T02660169  RH  055%=      5-min Rain = 0
KSE2 100535Z 16009KT 27/17 A301 RMK A01 T02660169  RH  055%=      5-min Rain = 0
KSE2 100536Z 15009KT 27/17 A301 RMK A01 T02660169  RH  055%=      5-min Rain = 0
KSE2 100537Z 15008KT 27/17 A301 RMK A01 T02660169  RH  055%=      5-min Rain = 0
KSE2 100538Z 15008KT 27/17 A301 RMK A01 T02660169  RH  055%=      5-min Rain = 0
KSE2 100539Z 15007KT 27/17 A301 RMK A01 T02660168  RH  055%=      5-min Rain = 0
KSE2 100540Z 15009KT 27/17 A301 RMK A01 T02650168  RH  055%=      5-min Rain = 0
KSE2 100541Z 16009KT 27/17 A301 RMK A01 T02660168  RH  055%=      5-min Rain = 0
KSE2 100542Z 16009KT 27/17 A301 RMK A01 T02650168  RH  055%=      5-min Rain = 0
KSE2 100543Z 16009KT 27/17 A301 RMK A01 T02660168  RH  055%=      5-min Rain = 0
KSE2 100544Z 15010KT 27/17 A301 RMK A01 T02650167  RH  055%=      5-min Rain = 0
KSE2 100545Z 16007KT 27/17 A301 RMK A01 T02650167  RH  055%=      5-min Rain = 0
KSE2 100546Z 15008KT 27/17 A301 RMK A01 T02650167  RH  055%=      5-min Rain = 0
KSE2 100547Z 16008KT 27/17 A301 RMK A01 T02650167  RH  055%=      5-min Rain = 0
KSE2 100548Z 15010KT 26/17 A301 RMK A01 T02640167  RH  055%=      5-min Rain = 0
KSE2 100549Z 15009KT 26/17 A301 RMK A01 T02640167  RH  055%=      5-min Rain = 0
KSE2 100550Z 15007KT 26/17 A301 RMK A01 T02640167  RH  055%=      5-min Rain = 0
KSE2 100551Z 15007KT 26/17 A301 RMK A01 T02640167  RH  055%=      5-min Rain = 0
KSE2 100552Z 15009KT 26/17 A301 RMK A01 T02630167  RH  055%=      5-min Rain = 0
KSE2 100553Z 15007KT 26/17 A301 RMK A01 T02630167  RH  056%=      5-min Rain = 0
KSE2 100554Z 15007KT 26/17 A301 RMK A01 T02630167  RH  056%=      5-min Rain = 0
KSE2 100555Z 15008KT 26/17 A301 RMK A01 T02620168  RH  056%=      5-min Rain = 0
KSE2 100556Z 15007KT 26/17 A301 RMK A01 T02620168  RH  056%=      5-min Rain = 0
KSE2 100557Z 15008KT 26/17 A301 RMK A01 T02620169  RH  057%=      5-min Rain = 0
KSE2 100558Z 15010KT 26/17 A301 RMK A01 T02610169  RH  057%=      5-min Rain = 0
KSE2 100559Z 15008KT 26/17 A301 RMK A01 T02610170  RH  057%=      5-min Rain = 0
KSE2 100600Z 15010KT 26/17 A301 RMK A01 T02610171  RH  057%=      5-min Rain = 0
KSE2 100601Z 15009KT 26/17 A301 RMK A01 T02610172  RH  058%=      5-min Rain = 0
KSE2 100602Z 15008KT 26/17 A301 RMK A01 T02610173  RH  058%=      5-min Rain = 0
KSE2 100603Z 15009G14KT 26/17 A301 RMK A01 T02610173  RH  058%=      5-min Rain = 0
KSE2 100604Z 15009KT 26/17 A301 RMK A01 T02600174  RH  059%=      5-min Rain = 0
KSE2 100605Z 15009KT 26/17 A301 RMK A01 T02610174  RH  059%=      5-min Rain = 0
KSE2 100606Z 16008KT 26/17 A301 RMK A01 T02600174  RH  059%=      5-min Rain = 0
KSE2 100607Z 16009KT 26/18 A301 RMK A01 T02600175  RH  059%=      5-min Rain = 0
KSE2 100608Z 16010KT 26/18 A301 RMK A01 T02600176  RH  060%=      5-min Rain = 0
KSE2 100609Z 14010KT 26/18 A301 RMK A01 T02600178  RH  060%=      5-min Rain = 0
KSE2 100610Z 15010KT 26/18 A301 RMK A01 T02600179  RH  061%=      5-min Rain = 0
KSE2 100611Z 15007KT 26/18 A301 RMK A01 T02600179  RH  061%=      5-min Rain = 0
KSE2 100612Z 15007KT 26/18 A301 RMK A01 T02590179  RH  061%=      5-min Rain = 0
KSE2 100613Z 15008KT 26/18 A301 RMK A01 T02590180  RH  062%=      5-min Rain = 0
KSE2 100614Z 15009KT 26/18 A301 RMK A01 T02590181  RH  062%=      5-min Rain = 0
KSE2 100615Z 14009KT 26/18 A301 RMK A01 T02590181  RH  062%=      5-min Rain = 0
KSE2 100616Z 16008KT 26/18 A301 RMK A01 T02590182  RH  063%=      5-min Rain = 0
KSE2 100617Z 16008KT 26/18 A301 RMK A01 T02580183  RH  063%=      5-min Rain = 0
KSE2 100618Z 16008KT 26/18 A301 RMK A01 T02580183  RH  063%=      5-min Rain = 0
KSE2 100619Z 15007KT 26/18 A301 RMK A01 T02580183  RH  063%=      5-min Rain = 0
KSE2 100620Z 16007KT 26/18 A301 RMK A01 T02580184  RH  064%=      5-min Rain = 0
KSE2 100621Z 16010KT 26/19 A301 RMK A01 T02570185  RH  064%=      5-min Rain = 0
KSE2 100622Z 15011KT 26/19 A301 RMK A01 T02570186  RH  065%=      5-min Rain = 0
KSE2 100623Z 16009KT 26/19 A301 RMK A01 T02570187  RH  065%=      5-min Rain = 0
KSE2 100624Z 15008KT 26/19 A301 RMK A01 T02570187  RH  065%=      5-min Rain = 0
KSE2 100625Z 15007KT 26/19 A301 RMK A01 T02570187  RH  065%=      5-min Rain = 0
KSE2 100626Z 16008KT 26/19 A301 RMK A01 T02570187  RH  065%=      5-min Rain = 0
KSE2 100627Z 15009KT 26/19 A301 RMK A01 T02560187  RH  065%=      5-min Rain = 0
KSE2 100628Z 15006KT 26/19 A301 RMK A01 T02560187  RH  066%=      5-min Rain = 0
KSE2 100629Z 16009KT 26/19 A301 RMK A01 T02560187  RH  066%=      5-min Rain = 0
KSE2 100630Z 16009KT 26/19 A301 RMK A01 T02560188  RH  066%=      5-min Rain = 0
KSE2 100631Z 16009KT 26/19 A301 RMK A01 T02560188  RH  066%=      5-min Rain = 0
KSE2 100632Z 16009KT 26/19 A301 RMK A01 T02560189  RH  066%=      5-min Rain = 0
KSE2 100633Z 16009KT 26/19 A301 RMK A01 T02560189  RH  067%=      5-min Rain = 0
KSE2 100634Z 15008KT 26/19 A301 RMK A01 T02550189  RH  067%=      5-min Rain = 0
KSE2 100635Z 16007KT 26/19 A301 RMK A01 T02550189  RH  067%=      5-min Rain = 0
KSE2 100636Z 15007KT 26/19 A301 RMK A01 T02550190  RH  067%=      5-min Rain = 0
KSE2 100637Z 15009KT 25/19 A301 RMK A01 T02540190  RH  068%=      5-min Rain = 0
KSE2 100638Z 16009KT 25/19 A301 RMK A01 T02540191  RH  068%=      5-min Rain = 0
KSE2 100639Z 16008KT 25/19 A301 RMK A01 T02540191  RH  068%=      5-min Rain = 0
KSE2 100640Z 16008KT 25/19 A301 RMK A01 T02540192  RH  068%=      5-min Rain = 0
KSE2 100641Z 15009KT 25/19 A3009 RMK A01 T02540193  RH  069%=      5-min Rain = 0
KSE2 100642Z 17008KT 25/19 A3009 RMK A01 T02540193  RH  069%=      5-min Rain = 0
KSE2 100643Z 16008KT 25/19 A3009 RMK A01 T02540193  RH  069%=      5-min Rain = 0
KSE2 100644Z 16009KT 25/19 A3009 RMK A01 T02540194  RH  069%=      5-min Rain = 0
KSE2 100645Z 15007KT 25/19 A3009 RMK A01 T02540194  RH  070%=      5-min Rain = 0
KSE2 100646Z 17009KT 25/19 A3009 RMK A01 T02540194  RH  070%=      5-min Rain = 0
KSE2 100647Z 16009KT 25/20 A3009 RMK A01 T02540196  RH  070%=      5-min Rain = 0
KSE2 100648Z 17010KT 25/20 A3009 RMK A01 T02540196  RH  070%=      5-min Rain = 0
KSE2 100649Z 15008KT 25/20 A3009 RMK A01 T02540196  RH  070%=      5-min Rain = 0
KSE2 100650Z 15008KT 25/20 A3009 RMK A01 T02530196  RH  070%=      5-min Rain = 0
KSE2 100651Z 16008KT 25/20 A3009 RMK A01 T02530196  RH  071%=      5-min Rain = 0
KSE2 100652Z 16008KT 25/20 A3009 RMK A01 T02530196  RH  071%=      5-min Rain = 0
KSE2 100653Z 16010KT 25/20 A3009 RMK A01 T02520197  RH  071%=      5-min Rain = 0
KSE2 100654Z 16008KT 25/20 A3009 RMK A01 T02520198  RH  072%=      5-min Rain = 0
KSE2 100655Z 16008KT 25/20 A3009 RMK A01 T02520198  RH  072%=      5-min Rain = 0
KSE2 100656Z 15007KT 25/20 A3009 RMK A01 T02520199  RH  072%=      5-min Rain = 0
KSE2 100657Z 15007KT 25/20 A3009 RMK A01 T02520199  RH  072%=      5-min Rain = 0
KSE2 100658Z 16010KT 25/20 A3009 RMK A01 T02520199  RH  072%=      5-min Rain = 0
KSE2 100659Z 16009KT 25/20 A3009 RMK A01 T02520200  RH  073%=      5-min Rain = 0
KSE2 100700Z 16008KT 25/20 A3009 RMK A01 T02520200  RH  073%=      5-min Rain = 0
KSE2 100701Z 16010KT 25/20 A3009 RMK A01 T02510200  RH  073%=      5-min Rain = 0
KSE2 100702Z 16008KT 25/20 A3009 RMK A01 T02510200  RH  073%=      5-min Rain = 0
KSE2 100703Z 16010KT 25/20 A3008 RMK A01 T02510201  RH  073%=      5-min Rain = 0
KSE2 100704Z 15010KT 25/20 A3008 RMK A01 T02510201  RH  074%=      5-min Rain = 0
KSE2 100705Z 17009KT 25/20 A3008 RMK A01 T02510202  RH  074%=      5-min Rain = 0
KSE2 100706Z 16008KT 25/20 A3009 RMK A01 T02510202  RH  074%=      5-min Rain = 0
KSE2 100707Z 16010KT 25/20 A3008 RMK A01 T02510202  RH  074%=      5-min Rain = 0
KSE2 100708Z 16010KT 25/20 A3009 RMK A01 T02510203  RH  074%=      5-min Rain = 0
KSE2 100709Z 15008KT 25/20 A3009 RMK A01 T02510203  RH  075%=      5-min Rain = 0
KSE2 100710Z 16012KT 25/20 A3008 RMK A01 T02510204  RH  075%=      5-min Rain = 0
KSE2 100711Z 15010KT 25/20 A3009 RMK A01 T02510204  RH  075%=      5-min Rain = 0
KSE2 100712Z 16008G14KT 25/20 A3009 RMK A01 T02510204  RH  075%=      5-min Rain = 0
KSE2 100713Z 15010G15KT 25/21 A3009 RMK A01 T02510205  RH  076%=      5-min Rain = 0
KSE2 100714Z 16009G14KT 25/21 A3009 RMK A01 T02500205  RH  076%=      5-min Rain = 0
KSE2 100715Z 16012G17KT 25/21 A3009 RMK A01 T02510206  RH  076%=      5-min Rain = 0
KSE2 100716Z 17011G18KT 25/21 A3009 RMK A01 T02500206  RH  076%=      5-min Rain = 0
KSE2 100717Z 16009KT 25/21 A3009 RMK A01 T02510206  RH  076%=      5-min Rain = 0
KSE2 100718Z 16011KT 25/21 A3009 RMK A01 T02500206  RH  077%=      5-min Rain = 0
KSE2 100719Z 16010KT 25/21 A3009 RMK A01 T02500207  RH  077%=      5-min Rain = 0
KSE2 100720Z 15012KT 25/21 A3009 RMK A01 T02500208  RH  077%=      5-min Rain = 0
KSE2 100721Z 15013G20KT 25/21 A3009 RMK A01 T02510208  RH  077%=      5-min Rain = 0
KSE2 100722Z 16012KT 25/21 A3009 RMK A01 T02500209  RH  078%=      5-min Rain = 0
KSE2 100723Z 17009KT 25/21 A3009 RMK A01 T02500208  RH  077%=      5-min Rain = 0
KSE2 100724Z 15012G17KT 25/21 A3009 RMK A01 T02500208  RH  078%=      5-min Rain = 0
KSE2 100725Z 16011KT 25/21 A3009 RMK A01 T02500209  RH  078%=      5-min Rain = 0
KSE2 100726Z 16013G18KT 25/21 A3009 RMK A01 T02500209  RH  078%=      5-min Rain = 0
KSE2 100727Z 17011KT 25/21 A3009 RMK A01 T02500209  RH  078%=      5-min Rain = 0
KSE2 100728Z 17010G16KT 25/21 A3009 RMK A01 T02500209  RH  078%=      5-min Rain = 0
KSE2 100729Z 16011KT 25/21 A3009 RMK A01 T02500209  RH  078%=      5-min Rain = 0
KSE2 100730Z 16012KT 25/21 A3009 RMK A01 T02500210  RH  078%=      5-min Rain = 0
KSE2 100731Z 16012KT 25/21 A3009 RMK A01 T02490209  RH  078%=      5-min Rain = 0
KSE2 100732Z 15009G14KT 25/21 A3009 RMK A01 T02490209  RH  078%=      5-min Rain = 0
KSE2 100733Z 15011G16KT 25/21 A3009 RMK A01 T02490209  RH  078%=      5-min Rain = 0
KSE2 100734Z 16014KT 25/21 A3009 RMK A01 T02490209  RH  079%=      5-min Rain = 0
KSE2 100735Z 17015G20KT 25/21 A3009 RMK A01 T02490210  RH  079%=      5-min Rain = 0
KSE2 100736Z 17011G16KT 25/21 A3009 RMK A01 T02490210  RH  079%=      5-min Rain = 0
KSE2 100737Z 16011KT 25/21 A3009 RMK A01 T02490209  RH  079%=      5-min Rain = 0
KSE2 100738Z 17010KT 25/21 A3009 RMK A01 T02490210  RH  079%=      5-min Rain = 0
KSE2 100739Z 15009G14KT 25/21 A3009 RMK A01 T02490210  RH  079%=      5-min Rain = 0
KSE2 100740Z 16010KT 25/21 A3009 RMK A01 T02480210  RH  079%=      5-min Rain = 0
KSE2 100741Z 17009KT 25/21 A3009 RMK A01 T02480210  RH  079%=      5-min Rain = 0
KSE2 100742Z 17012KT 25/21 A3009 RMK A01 T02480210  RH  079%=      5-min Rain = 0
KSE2 100743Z 17014KT 25/21 A3009 RMK A01 T02480210  RH  079%=      5-min Rain = 0
KSE2 100744Z 17012KT 25/21 A3009 RMK A01 T02480211  RH  079%=      5-min Rain = 0
KSE2 100745Z 17013KT 25/21 A3009 RMK A01 T02480210  RH  079%=      5-min Rain = 0
KSE2 100746Z 17012G17KT 25/21 A3009 RMK A01 T02480210  RH  079%=      5-min Rain = 0
KSE2 100747Z 16011KT 25/21 A3009 RMK A01 T02480210  RH  079%=      5-min Rain = 0
KSE2 100748Z 16008KT 25/21 A3009 RMK A01 T02480211  RH  080%=      5-min Rain = 0
KSE2 100749Z 16010KT 25/21 A3009 RMK A01 T02480210  RH  080%=      5-min Rain = 0
KSE2 100750Z 16013KT 25/21 A3009 RMK A01 T02480211  RH  080%=      5-min Rain = 0
KSE2 100751Z 16010G15KT 25/21 A3009 RMK A01 T02480211  RH  080%=      5-min Rain = 0
KSE2 100752Z 15011KT 25/21 A3009 RMK A01 T02480210  RH  080%=      5-min Rain = 0
KSE2 100753Z 16010G15KT 25/21 A3009 RMK A01 T02470211  RH  080%=      5-min Rain = 0
KSE2 100754Z 16009G14KT 25/21 A3009 RMK A01 T02470211  RH  080%=      5-min Rain = 0
KSE2 100755Z 16012KT 25/21 A3009 RMK A01 T02470211  RH  080%=      5-min Rain = 0
KSE2 100756Z 17012G17KT 25/21 A3009 RMK A01 T02470211  RH  080%=      5-min Rain = 0
KSE2 100757Z 16012KT 25/21 A3009 RMK A01 T02470211  RH  080%=      5-min Rain = 0
KSE2 100758Z 16008KT 25/21 A3009 RMK A01 T02470211  RH  080%=      5-min Rain = 0
KSE2 100759Z 16011G16KT 25/21 A3009 RMK A01 T02470211  RH  080%=      5-min Rain = 0
KSE2 100800Z 17010G15KT 25/21 A3009 RMK A01 T02470211  RH  080%=      5-min Rain = 0
KSE2 100801Z 16011G17KT 25/21 A3009 RMK A01 T02470211  RH  081%=      5-min Rain = 0
KSE2 100802Z 16011G17KT 25/21 A3009 RMK A01 T02460211  RH  081%=      5-min Rain = 0
KSE2 100803Z 17010KT 25/21 A3009 RMK A01 T02460211  RH  081%=      5-min Rain = 0
KSE2 100804Z 16011G16KT 25/21 A3009 RMK A01 T02460211  RH  081%=      5-min Rain = 0
KSE2 100805Z 17012KT 25/21 A3009 RMK A01 T02460211  RH  081%=      5-min Rain = 0
KSE2 100806Z 17007KT 25/21 A3009 RMK A01 T02460211  RH  081%=      5-min Rain = 0
KSE2 100807Z 17011KT 25/21 A3009 RMK A01 T02460211  RH  081%=      5-min Rain = 0
KSE2 100808Z 16010G15KT 25/21 A3009 RMK A01 T02460211  RH  081%=      5-min Rain = 0
KSE2 100809Z 17011KT 25/21 A3009 RMK A01 T02460211  RH  081%=      5-min Rain = 0
KSE2 100810Z 17011KT 25/21 A3009 RMK A01 T02460211  RH  081%=      5-min Rain = 0
KSE2 100811Z 17013KT 25/21 A3009 RMK A01 T02460211  RH  081%=      5-min Rain = 0
KSE2 100812Z 16010G15KT 25/21 A3009 RMK A01 T02460211  RH  081%=      5-min Rain = 0
KSE2 100813Z 16010KT 25/21 A3009 RMK A01 T02460210  RH  081%=      5-min Rain = 0
KSE2 100814Z 17010KT 25/21 A3009 RMK A01 T02460210  RH  081%=      5-min Rain = 0
KSE2 100815Z 16010G17KT 25/21 A3009 RMK A01 T02460210  RH  081%=      5-min Rain = 0
KSE2 100816Z 15011KT 25/21 A3009 RMK A01 T02450210  RH  081%=      5-min Rain = 0
KSE2 100817Z 17008G13KT 25/21 A3009 RMK A01 T02450210  RH  081%=      5-min Rain = 0
KSE2 100818Z 16008KT 25/21 A3009 RMK A01 T02450210  RH  081%=      5-min Rain = 0
KSE2 100819Z 16010KT 25/21 A3009 RMK A01 T02450210  RH  081%=      5-min Rain = 0
KSE2 100820Z 16007KT 25/21 A3009 RMK A01 T02450211  RH  081%=      5-min Rain = 0
KSE2 100821Z 16007KT 25/21 A3009 RMK A01 T02450210  RH  081%=      5-min Rain = 0
KSE2 100822Z 17010KT 25/21 A3009 RMK A01 T02450211  RH  081%=      5-min Rain = 0
KSE2 100823Z 17007KT 25/21 A3009 RMK A01 T02450210  RH  081%=      5-min Rain = 0
KSE2 100824Z 17009KT 25/21 A3009 RMK A01 T02450210  RH  081%=      5-min Rain = 0
KSE2 100825Z 16011KT 25/21 A3009 RMK A01 T02450210  RH  081%=      5-min Rain = 0
KSE2 100826Z 17012KT 25/21 A3009 RMK A01 T02450210  RH  081%=      5-min Rain = 0
KSE2 100827Z 17010KT 25/21 A3009 RMK A01 T02450210  RH  081%=      5-min Rain = 0
KSE2 100828Z 16013KT 25/21 A3009 RMK A01 T02450210  RH  081%=      5-min Rain = 0
KSE2 100829Z 16011KT 25/21 A3009 RMK A01 T02450210  RH  081%=      5-min Rain = 0
KSE2 100830Z 16008KT 25/21 A3009 RMK A01 T02450210  RH  081%=      5-min Rain = 0
KSE2 100831Z 16010G15KT 25/21 A3009 RMK A01 T02450210  RH  081%=      5-min Rain = 0
KSE2 100832Z 16011KT 25/21 A3009 RMK A01 T02450210  RH  081%=      5-min Rain = 0
KSE2 100833Z 16009KT 25/21 A3009 RMK A01 T02450210  RH  081%=      5-min Rain = 0
KSE2 100834Z 17007KT 25/21 A3009 RMK A01 T02450210  RH  081%=      5-min Rain = 0
KSE2 100835Z 17010KT 25/21 A3009 RMK A01 T02450210  RH  081%=      5-min Rain = 0
KSE2 100836Z 17009KT 25/21 A3009 RMK A01 T02450210  RH  081%=      5-min Rain = 0
KSE2 100837Z 16008KT 25/21 A3009 RMK A01 T02450210  RH  081%=      5-min Rain = 0
KSE2 100838Z 16008G13KT 24/21 A3009 RMK A01 T02440209  RH  081%=      5-min Rain = 0
KSE2 100839Z 17010G15KT 24/21 A3009 RMK A01 T02440210  RH  081%=      5-min Rain = 0
KSE2 100840Z 16008G14KT 24/21 A3009 RMK A01 T02440210  RH  081%=      5-min Rain = 0
KSE2 100841Z 17009G14KT 24/21 A3009 RMK A01 T02440210  RH  081%=      5-min Rain = 0
KSE2 100842Z 17010KT 24/21 A3008 RMK A01 T02440210  RH  081%=      5-min Rain = 0
KSE2 100843Z 17012KT 24/21 A3008 RMK A01 T02440210  RH  081%=      5-min Rain = 0
KSE2 100844Z 16009KT 24/21 A3008 RMK A01 T02440210  RH  081%=      5-min Rain = 0
KSE2 100845Z 16009KT 24/21 A3009 RMK A01 T02440210  RH  081%=      5-min Rain = 0
KSE2 100846Z 16012KT 24/21 A3008 RMK A01 T02440210  RH  081%=      5-min Rain = 0
KSE2 100847Z 16011KT 24/21 A3008 RMK A01 T02440210  RH  081%=      5-min Rain = 0
KSE2 100848Z 17010KT 24/21 A3009 RMK A01 T02440210  RH  081%=      5-min Rain = 0
KSE2 100849Z 16011KT 24/21 A3009 RMK A01 T02440210  RH  081%=      5-min Rain = 0
KSE2 100850Z 17013KT 24/21 A3009 RMK A01 T02440210  RH  081%=      5-min Rain = 0
KSE2 100851Z 17010KT 24/21 A3009 RMK A01 T02440210  RH  081%=      5-min Rain = 0
KSE2 100852Z 17010KT 24/21 A3008 RMK A01 T02430210  RH  082%=      5-min Rain = 0
KSE2 100853Z 17010G15KT 24/21 A3008 RMK A01 T02430210  RH  082%=      5-min Rain = 0
KSE2 100854Z 16014KT 24/21 A3008 RMK A01 T02430210  RH  082%=      5-min Rain = 0
KSE2 100855Z 17011KT 24/21 A3008 RMK A01 T02430210  RH  082%=      5-min Rain = 0
KSE2 100856Z 17010G16KT 24/21 A3008 RMK A01 T02430210  RH  082%=      5-min Rain = 0
KSE2 100857Z 16012KT 24/21 A3008 RMK A01 T02430210  RH  082%=      5-min Rain = 0
KSE2 100858Z 16015KT 24/21 A3008 RMK A01 T02430210  RH  082%=      5-min Rain = 0
KSE2 100859Z 16010G15KT 24/21 A3008 RMK A01 T02430210  RH  082%=      5-min Rain = 0
KSE2 100900Z 16011KT 24/21 A3008 RMK A01 T02430210  RH  082%=      5-min Rain = 0
KSE2 100901Z 15010G16KT 24/21 A3008 RMK A01 T02420210  RH  082%=      5-min Rain = 0
KSE2 100902Z 16012KT 24/21 A3008 RMK A01 T02420211  RH  082%=      5-min Rain = 0
KSE2 100903Z 16010KT 24/21 A3008 RMK A01 T02420210  RH  082%=      5-min Rain = 0
KSE2 100904Z 16012G17KT 24/21 A3008 RMK A01 T02420211  RH  083%=      5-min Rain = 0
KSE2 100905Z 15009KT 24/21 A3009 RMK A01 T02420211  RH  083%=      5-min Rain = 0
KSE2 100906Z 16011KT 24/21 A3008 RMK A01 T02410210  RH  083%=      5-min Rain = 0
KSE2 100907Z 16013KT 24/21 A3008 RMK A01 T02410211  RH  083%=      5-min Rain = 0
KSE2 100908Z 16010G15KT 24/21 A3009 RMK A01 T02410211  RH  083%=      5-min Rain = 0
KSE2 100909Z 15009KT 24/21 A3009 RMK A01 T02410211  RH  083%=      5-min Rain = 0
KSE2 100910Z 16008KT 24/21 A3009 RMK A01 T02410210  RH  083%=      5-min Rain = 0
KSE2 100911Z 16009G14KT 24/21 A3008 RMK A01 T02400210  RH  083%=      5-min Rain = 0
KSE2 100912Z 16011G16KT 24/21 A3009 RMK A01 T02400211  RH  083%=      5-min Rain = 0
KSE2 100913Z 16010KT 24/21 A3008 RMK A01 T02400210  RH  083%=      5-min Rain = 0
KSE2 100914Z 16011KT 24/21 A3008 RMK A01 T02400210  RH  083%=      5-min Rain = 0
KSE2 100915Z 17011G16KT 24/21 A3008 RMK A01 T02400210  RH  084%=      5-min Rain = 0
KSE2 100916Z 17011G16KT 24/21 A3008 RMK A01 T02400211  RH  084%=      5-min Rain = 0
KSE2 100917Z 17012G17KT 24/21 A3008 RMK A01 T02400210  RH  084%=      5-min Rain = 0
KSE2 100918Z 17011KT 24/21 A3008 RMK A01 T02400210  RH  084%=      5-min Rain = 0
KSE2 100919Z 16014G19KT 24/21 A3008 RMK A01 T02400210  RH  083%=      5-min Rain = 0
KSE2 100920Z 16013KT 24/21 A3008 RMK A01 T02400210  RH  083%=      5-min Rain = 0
KSE2 100921Z 16011KT 24/21 A3008 RMK A01 T02400210  RH  083%=      5-min Rain = 0
KSE2 100922Z 17008G14KT 24/21 A3008 RMK A01 T02390210  RH  083%=      5-min Rain = 0
KSE2 100923Z 16013KT 24/21 A3008 RMK A01 T02390209  RH  083%=      5-min Rain = 0
KSE2 100924Z 17010G15KT 24/21 A3009 RMK A01 T02390209  RH  083%=      5-min Rain = 0
KSE2 100925Z 16010G16KT 24/21 A3009 RMK A01 T02390209  RH  083%=      5-min Rain = 0
KSE2 100926Z 16013KT 24/21 A3009 RMK A01 T02390209  RH  084%=      5-min Rain = 0
KSE2 100927Z 17012KT 24/21 A3009 RMK A01 T02390209  RH  084%=      5-min Rain = 0
KSE2 100928Z 16011KT 24/21 A3009 RMK A01 T02390209  RH  083%=      5-min Rain = 0
KSE2 100929Z 16011G16KT 24/21 A3009 RMK A01 T02380208  RH  083%=      5-min Rain = 0
KSE2 100930Z 17008KT 24/21 A3009 RMK A01 T02380208  RH  083%=      5-min Rain = 0
KSE2 100931Z 16010KT 24/21 A3009 RMK A01 T02380208  RH  083%=      5-min Rain = 0
KSE2 100932Z 17011G16KT 24/21 A3009 RMK A01 T02370208  RH  084%=      5-min Rain = 0
KSE2 100933Z 16010KT 24/21 A3009 RMK A01 T02370208  RH  084%=      5-min Rain = 0
KSE2 100934Z 17010KT 24/21 A3009 RMK A01 T02370208  RH  084%=      5-min Rain = 0
KSE2 100935Z 18012G17KT 24/21 A3009 RMK A01 T02370208  RH  084%=      5-min Rain = 0
KSE2 100936Z 16013KT 24/21 A3009 RMK A01 T02370208  RH  084%=      5-min Rain = 0
KSE2 100937Z 16011KT 24/21 A3009 RMK A01 T02370207  RH  084%=      5-min Rain = 0
KSE2 100938Z 16009KT 24/21 A3009 RMK A01 T02370207  RH  084%=      5-min Rain = 0
KSE2 100939Z 16014G20KT 24/21 A3009 RMK A01 T02370207  RH  084%=      5-min Rain = 0
KSE2 100940Z 16010KT 24/21 A3009 RMK A01 T02370207  RH  083%=      5-min Rain = 0
KSE2 100941Z 16012KT 24/21 A3009 RMK A01 T02370207  RH  083%=      5-min Rain = 0
KSE2 100942Z 16011G17KT 24/21 A3009 RMK A01 T02370207  RH  083%=      5-min Rain = 0
KSE2 100943Z 16014G20KT 24/21 A3009 RMK A01 T02370206  RH  083%=      5-min Rain = 0
KSE2 100944Z 17015KT 24/21 A3009 RMK A01 T02370206  RH  083%=      5-min Rain = 0
KSE2 100945Z 16012G18KT 24/21 A3009 RMK A01 T02370206  RH  083%=      5-min Rain = 0
KSE2 100946Z 16013KT 24/21 A3009 RMK A01 T02370206  RH  083%=      5-min Rain = 0
KSE2 100947Z 15012G17KT 24/21 A3009 RMK A01 T02370205  RH  083%=      5-min Rain = 0
KSE2 100948Z 17013KT 24/21 A3009 RMK A01 T02370205  RH  083%=      5-min Rain = 0
KSE2 100949Z 16012KT 24/21 A3009 RMK A01 T02370206  RH  083%=      5-min Rain = 0
KSE2 100950Z 16011KT 24/21 A3009 RMK A01 T02370205  RH  083%=      5-min Rain = 0
KSE2 100951Z 16012G19KT 24/21 A3009 RMK A01 T02370205  RH  082%=      5-min Rain = 0
KSE2 100952Z 16013G18KT 24/21 A3009 RMK A01 T02370205  RH  082%=      5-min Rain = 0
KSE2 100953Z 17010G15KT 24/21 A3009 RMK A01 T02370205  RH  082%=      5-min Rain = 0
KSE2 100954Z 15013KT 24/21 A3009 RMK A01 T02360205  RH  082%=      5-min Rain = 0
KSE2 100955Z 16011KT 24/20 A3009 RMK A01 T02360204  RH  082%=      5-min Rain = 0
KSE2 100956Z 16011KT 24/20 A3009 RMK A01 T02360204  RH  082%=      5-min Rain = 0
KSE2 100957Z 17010KT 24/21 A3009 RMK A01 T02360205  RH  082%=      5-min Rain = 0
KSE2 100958Z 16009KT 24/21 A3009 RMK A01 T02360205  RH  083%=      5-min Rain = 0
KSE2 100959Z 16009KT 24/20 A3009 RMK A01 T02350204  RH  083%=      5-min Rain = 0
KSE2 101000Z 17012G19KT 24/21 A3009 RMK A01 T02350205  RH  083%=      5-min Rain = 0
KSE2 101001Z 17013KT 24/21 A3009 RMK A01 T02350205  RH  083%=      5-min Rain = 0
KSE2 101002Z 16012KT 24/21 A3009 RMK A01 T02350205  RH  083%=      5-min Rain = 0
KSE2 101003Z 16010KT 24/21 A3009 RMK A01 T02360205  RH  083%=      5-min Rain = 0
KSE2 101004Z 16008KT 24/20 A3009 RMK A01 T02350204  RH  083%=      5-min Rain = 0
KSE2 101005Z 16009G15KT 24/21 A3009 RMK A01 T02350205  RH  083%=      5-min Rain = 0
KSE2 101006Z 17010KT 24/21 A3009 RMK A01 T02350205  RH  083%=      5-min Rain = 0
KSE2 101007Z 16010KT 24/21 A3009 RMK A01 T02350205  RH  083%=      5-min Rain = 0
KSE2 101008Z 15009G15KT 24/21 A3009 RMK A01 T02350205  RH  083%=      5-min Rain = 0
KSE2 101009Z 17010G15KT 24/21 A3009 RMK A01 T02350205  RH  083%=      5-min Rain = 0
KSE2 101010Z 17011KT 24/21 A3009 RMK A01 T02350206  RH  084%=      5-min Rain = 0
KSE2 101011Z 16010G15KT 24/21 A3009 RMK A01 T02350206  RH  084%=      5-min Rain = 0
KSE2 101012Z 17011KT 24/21 A3009 RMK A01 T02350206  RH  084%=      5-min Rain = 0
KSE2 101013Z 16008KT 24/21 A3009 RMK A01 T02350206  RH  084%=      5-min Rain = 0
KSE2 101014Z 17009KT 23/21 A3009 RMK A01 T02340206  RH  084%=      5-min Rain = 0
KSE2 101015Z 16007KT 23/21 A3009 RMK A01 T02340206  RH  084%=      5-min Rain = 0
KSE2 101016Z 17011KT 23/21 A3009 RMK A01 T02340206  RH  084%=      5-min Rain = 0
KSE2 101017Z 16010KT 23/21 A3009 RMK A01 T02340206  RH  084%=      5-min Rain = 0
KSE2 101018Z 16008G15KT 23/21 A3009 RMK A01 T02340206  RH  084%=      5-min Rain = 0
KSE2 101019Z 17009KT 23/21 A301 RMK A01 T02340206  RH  084%=      5-min Rain = 0
KSE2 101020Z 17011KT 23/21 A3009 RMK A01 T02340206  RH  084%=      5-min Rain = 0
KSE2 101021Z 16009KT 23/21 A3009 RMK A01 T02340207  RH  085%=      5-min Rain = 0
KSE2 101022Z 15008KT 23/21 A301 RMK A01 T02340207  RH  085%=      5-min Rain = 0
KSE2 101023Z 17008KT 23/21 A3009 RMK A01 T02340207  RH  085%=      5-min Rain = 0
KSE2 101024Z 16010KT 23/21 A3009 RMK A01 T02340207  RH  085%=      5-min Rain = 0
KSE2 101025Z 16009KT 23/21 A3009 RMK A01 T02340207  RH  085%=      5-min Rain = 0
KSE2 101026Z 16009KT 23/21 A3009 RMK A01 T02340207  RH  085%=      5-min Rain = 0
KSE2 101027Z 16009KT 23/21 A301 RMK A01 T02340207  RH  085%=      5-min Rain = 0
KSE2 101028Z 16010KT 23/21 A3009 RMK A01 T02340207  RH  085%=      5-min Rain = 0
KSE2 101029Z 17013KT 23/21 A3009 RMK A01 T02340207  RH  085%=      5-min Rain = 0
KSE2 101030Z 17011KT 23/21 A3009 RMK A01 T02340207  RH  085%=      5-min Rain = 0
KSE2 101031Z 16009KT 23/21 A3009 RMK A01 T02340207  RH  085%=      5-min Rain = 0
KSE2 101032Z 16009G14KT 23/21 A301 RMK A01 T02340207  RH  085%=      5-min Rain = 0
KSE2 101033Z 16010KT 23/21 A3009 RMK A01 T02330207  RH  085%=      5-min Rain = 0
KSE2 101034Z 16011KT 23/21 A3009 RMK A01 T02340208  RH  085%=      5-min Rain = 0
KSE2 101035Z 18009KT 23/21 A3009 RMK A01 T02340208  RH  085%=      5-min Rain = 0
KSE2 101036Z 17011KT 23/21 A3009 RMK A01 T02340208  RH  085%=      5-min Rain = 0
KSE2 101037Z 16010KT 23/21 A3009 RMK A01 T02330208  RH  085%=      5-min Rain = 0
KSE2 101038Z 16010KT 23/21 A3009 RMK A01 T02340208  RH  085%=      5-min Rain = 0
KSE2 101039Z 17011KT 23/21 A3009 RMK A01 T02340208  RH  085%=      5-min Rain = 0
KSE2 101040Z 17010KT 23/21 A3009 RMK A01 T02340208  RH  085%=      5-min Rain = 0
KSE2 101041Z 17008KT 23/21 A3009 RMK A01 T02340208  RH  086%=      5-min Rain = 0
KSE2 101042Z 17008KT 23/21 A3009 RMK A01 T02340208  RH  086%=      5-min Rain = 0
KSE2 101043Z 17008KT 23/21 A3009 RMK A01 T02330208  RH  086%=      5-min Rain = 0
KSE2 101044Z 16009KT 23/21 A3009 RMK A01 T02330208  RH  086%=      5-min Rain = 0
KSE2 101045Z 17009KT 23/21 A3009 RMK A01 T02330208  RH  086%=      5-min Rain = 0
KSE2 101046Z 16009G15KT 23/21 A3009 RMK A01 T02330208  RH  086%=      5-min Rain = 0
KSE2 101047Z 16009KT 23/21 A3009 RMK A01 T02330208  RH  086%=      5-min Rain = 0
KSE2 101048Z 16010KT 23/21 A3009 RMK A01 T02330208  RH  086%=      5-min Rain = 0
KSE2 101049Z 16008KT 23/21 A3009 RMK A01 T02330208  RH  086%=      5-min Rain = 0
KSE2 101050Z 17009KT 23/21 A3009 RMK A01 T02330208  RH  086%=      5-min Rain = 0
KSE2 101051Z 16010KT 23/21 A3009 RMK A01 T02330208  RH  086%=      5-min Rain = 0
KSE2 101052Z 17008G13KT 23/21 A3009 RMK A01 T02330208  RH  086%=      5-min Rain = 0
KSE2 101053Z 16010KT 23/21 A3009 RMK A01 T02330208  RH  086%=      5-min Rain = 0
KSE2 101054Z 17008KT 23/21 A3009 RMK A01 T02330208  RH  086%=      5-min Rain = 0
KSE2 101055Z 16009KT 23/21 A3009 RMK A01 T02330208  RH  086%=      5-min Rain = 0
KSE2 101056Z 17010KT 23/21 A3009 RMK A01 T02330208  RH  086%=      5-min Rain = 0
KSE2 101057Z 17007KT 23/21 A3009 RMK A01 T02330208  RH  086%=      5-min Rain = 0
KSE2 101058Z 16009KT 23/21 A3009 RMK A01 T02320208  RH  086%=      5-min Rain = 0
KSE2 101059Z 17008KT 23/21 A3009 RMK A01 T02320208  RH  086%=      5-min Rain = 0
KSE2 101100Z 17008KT 23/21 A3009 RMK A01 T02320208  RH  086%=      5-min Rain = 0
KSE2 101101Z 17008KT 23/21 A3009 RMK A01 T02320208  RH  086%=      5-min Rain = 0
KSE2 101102Z 17008KT 23/21 A3009 RMK A01 T02320207  RH  086%=      5-min Rain = 0
KSE2 101103Z 17009KT 23/21 A3009 RMK A01 T02320208  RH  086%=      5-min Rain = 0
KSE2 101104Z 16008KT 23/21 A3009 RMK A01 T02320207  RH  086%=      5-min Rain = 0
KSE2 101105Z 17010KT 23/21 A3009 RMK A01 T02320207  RH  086%=      5-min Rain = 0
KSE2 101106Z 18011KT 23/21 A3009 RMK A01 T02320207  RH  086%=      5-min Rain = 0
KSE2 101107Z 18009KT 23/21 A3009 RMK A01 T02330207  RH  085%=      5-min Rain = 0
KSE2 101108Z 16008KT 23/21 A3009 RMK A01 T02330207  RH  085%=      5-min Rain = 0
KSE2 101109Z 17010KT 23/21 A3009 RMK A01 T02330207  RH  085%=      5-min Rain = 0
KSE2 101110Z 17009KT 23/21 A3009 RMK A01 T02330207  RH  085%=      5-min Rain = 0
KSE2 101111Z 18011KT 23/21 A3009 RMK A01 T02330207  RH  085%=      5-min Rain = 0
KSE2 101112Z 17008KT 23/21 A3009 RMK A01 T02330206  RH  085%=      5-min Rain = 0
KSE2 101113Z 17008KT 23/21 A3009 RMK A01 T02330206  RH  085%=      5-min Rain = 0
KSE2 101114Z 17011KT 23/21 A3009 RMK A01 T02330206  RH  085%=      5-min Rain = 0
KSE2 101115Z 16010KT 23/21 A3009 RMK A01 T02330206  RH  084%=      5-min Rain = 0
KSE2 101116Z 16010KT 23/21 A3009 RMK A01 T02330205  RH  084%=      5-min Rain = 0
KSE2 101117Z 17008KT 23/21 A3009 RMK A01 T02330205  RH  084%=      5-min Rain = 0
KSE2 101118Z 16009G14KT 23/20 A3009 RMK A01 T02330204  RH  084%=      5-min Rain = 0
KSE2 101119Z 17010G15KT 23/20 A3009 RMK A01 T02330204  RH  084%=      5-min Rain = 0
KSE2 101120Z 17010G15KT 23/20 A3009 RMK A01 T02330204  RH  084%=      5-min Rain = 0
KSE2 101121Z 16009KT 23/20 A3009 RMK A01 T02330204  RH  083%=      5-min Rain = 0
KSE2 101122Z 17008G14KT 23/20 A3009 RMK A01 T02340204  RH  083%=      5-min Rain = 0
KSE2 101123Z 17010KT 23/20 A3009 RMK A01 T02340203  RH  083%=      5-min Rain = 0
KSE2 101124Z 18008G14KT 23/20 A3009 RMK A01 T02340203  RH  083%=      5-min Rain = 0
KSE2 101125Z 18011KT 23/20 A3009 RMK A01 T02340203  RH  083%=      5-min Rain = 0
KSE2 101126Z 17012KT 23/20 A3009 RMK A01 T02340202  RH  083%=      5-min Rain = 0
KSE2 101127Z 19011G18KT 23/20 A301 RMK A01 T02340202  RH  082%=      5-min Rain = 0
KSE2 101128Z 18011KT 23/20 A301 RMK A01 T02340201  RH  082%=      5-min Rain = 0
KSE2 101129Z 18008G13KT 23/20 A301 RMK A01 T02340201  RH  082%=      5-min Rain = 0
KSE2 101130Z 18011G16KT 23/20 A301 RMK A01 T02340201  RH  082%=      5-min Rain = 0
KSE2 101131Z 18013KT 23/20 A301 RMK A01 T02340201  RH  081%=      5-min Rain = 0
KSE2 101132Z 18012KT 23/20 A301 RMK A01 T02340200  RH  081%=      5-min Rain = 0
KSE2 101133Z 18010KT 24/20 A301 RMK A01 T02350200  RH  081%=      5-min Rain = 0
KSE2 101134Z 18008KT 24/20 A301 RMK A01 T02350200  RH  081%=      5-min Rain = 0
KSE2 101135Z 18010KT 23/20 A301 RMK A01 T02340200  RH  081%=      5-min Rain = 0
KSE2 101136Z 18010KT 23/20 A301 RMK A01 T02340200  RH  081%=      5-min Rain = 0
KSE2 101137Z 17009G14KT 23/20 A301 RMK A01 T02340200  RH  081%=      5-min Rain = 0
KSE2 101138Z 17011G16KT 24/20 A301 RMK A01 T02350200  RH  081%=      5-min Rain = 0
KSE2 101139Z 17010KT 24/20 A301 RMK A01 T02350200  RH  081%=      5-min Rain = 0
KSE2 101140Z 17008G13KT 23/20 A301 RMK A01 T02340199  RH  081%=      5-min Rain = 0
KSE2 101141Z 18012G17KT 24/20 A301 RMK A01 T02350199  RH  080%=      5-min Rain = 0
KSE2 101142Z 17011KT 24/20 A301 RMK A01 T02350199  RH  080%=      5-min Rain = 0
KSE2 101143Z 18008G13KT 24/20 A301 RMK A01 T02360200  RH  080%=      5-min Rain = 0
KSE2 101144Z 17008G13KT 24/20 A301 RMK A01 T02360199  RH  080%=      5-min Rain = 0
KSE2 101145Z 18011KT 24/20 A301 RMK A01 T02350199  RH  080%=      5-min Rain = 0
KSE2 101146Z 17012KT 24/20 A301 RMK A01 T02350199  RH  080%=      5-min Rain = 0
KSE2 101147Z 17009KT 24/20 A301 RMK A01 T02360199  RH  080%=      5-min Rain = 0
KSE2 101148Z 17012KT 24/20 A301 RMK A01 T02360199  RH  080%=      5-min Rain = 0
KSE2 101149Z 16012KT 24/20 A301 RMK A01 T02360199  RH  080%=      5-min Rain = 0
KSE2 101150Z 16010KT 24/20 A301 RMK A01 T02360198  RH  079%=      5-min Rain = 0
KSE2 101151Z 16011KT 24/20 A301 RMK A01 T02360199  RH  079%=      5-min Rain = 0
KSE2 101152Z 17010KT 24/20 A301 RMK A01 T02360198  RH  079%=      5-min Rain = 0
KSE2 101153Z 17009G14KT 24/20 A301 RMK A01 T02360198  RH  079%=      5-min Rain = 0
KSE2 101154Z 17010KT 24/20 A301 RMK A01 T02370198  RH  079%=      5-min Rain = 0
KSE2 101155Z 17009KT 24/20 A301 RMK A01 T02370198  RH  079%=      5-min Rain = 0
KSE2 101156Z 17011G16KT 24/20 A301 RMK A01 T02370198  RH  079%=      5-min Rain = 0
KSE2 101157Z 18014KT 24/20 A301 RMK A01 T02370198  RH  079%=      5-min Rain = 0
KSE2 101158Z 18012G17KT 24/20 A301 RMK A01 T02380198  RH  078%=      5-min Rain = 0
KSE2 101159Z 18014G19KT 24/20 A301 RMK A01 T02380198  RH  078%=      5-min Rain = 0
KSE2 101200Z 18011KT 24/20 A301 RMK A01 T02380198  RH  078%=      5-min Rain = 0
KSE2 101201Z 16008G13KT 24/20 A301 RMK A01 T02380198  RH  078%=      5-min Rain = 0
KSE2 101202Z 17008KT 24/20 A301 RMK A01 T02380198  RH  078%=      5-min Rain = 0
KSE2 101203Z 17011KT 24/20 A301 RMK A01 T02380198  RH  078%=      5-min Rain = 0
KSE2 101204Z 17008G13KT 24/20 A301 RMK A01 T02380198  RH  078%=      5-min Rain = 0
KSE2 101205Z 18005KT 24/20 A301 RMK A01 T02380198  RH  078%=      5-min Rain = 0
KSE2 101206Z 17006KT 24/20 A301 RMK A01 T02370198  RH  078%=      5-min Rain = 0
KSE2 101207Z 17009KT 24/20 A301 RMK A01 T02370198  RH  079%=      5-min Rain = 0
KSE2 101208Z 17010KT 24/20 A301 RMK A01 T02370198  RH  079%=      5-min Rain = 0
KSE2 101209Z 17007KT 24/20 A301 RMK A01 T02370198  RH  079%=      5-min Rain = 0
KSE2 101210Z 16007KT 24/20 A301 RMK A01 T02360198  RH  079%=      5-min Rain = 0
KSE2 101211Z 17007KT 24/20 A301 RMK A01 T02360197  RH  079%=      5-min Rain = 0
KSE2 101212Z 16009G14KT 24/20 A301 RMK A01 T02360198  RH  079%=      5-min Rain = 0
KSE2 101213Z 16008KT 24/20 A301 RMK A01 T02360198  RH  079%=      5-min Rain = 0
KSE2 101214Z 16010KT 24/20 A301 RMK A01 T02360198  RH  079%=      5-min Rain = 0
KSE2 101215Z 16009KT 24/20 A301 RMK A01 T02360198  RH  079%=      5-min Rain = 0
KSE2 101216Z 16010KT 24/20 A301 RMK A01 T02360199  RH  080%=      5-min Rain = 0
KSE2 101217Z 17007KT 24/20 A301 RMK A01 T02360198  RH  079%=      5-min Rain = 0
KSE2 101218Z 16008KT 24/20 A301 RMK A01 T02360198  RH  080%=      5-min Rain = 0
KSE2 101219Z 18013KT 24/20 A301 RMK A01 T02360199  RH  080%=      5-min Rain = 0
KSE2 101220Z 17008KT 24/20 A301 RMK A01 T02360199  RH  080%=      5-min Rain = 0
KSE2 101221Z 16007KT 24/20 A301 RMK A01 T02360199  RH  080%=      5-min Rain = 0
KSE2 101222Z 17007KT 24/20 A301 RMK A01 T02350199  RH  080%=      5-min Rain = 0
KSE2 101223Z 16007KT 24/20 A301 RMK A01 T02360199  RH  080%=      5-min Rain = 0
KSE2 101224Z 16007KT 24/20 A301 RMK A01 T02350199  RH  080%=      5-min Rain = 0
KSE2 101225Z 16007KT 24/20 A301 RMK A01 T02350199  RH  080%=      5-min Rain = 0
KSE2 101226Z 15009KT 24/20 A301 RMK A01 T02350199  RH  080%=      5-min Rain = 0
KSE2 101227Z 16009KT 24/20 A301 RMK A01 T02350199  RH  080%=      5-min Rain = 0
KSE2 101228Z 16009KT 24/20 A301 RMK A01 T02350199  RH  080%=      5-min Rain = 0
KSE2 101229Z 15009KT 24/20 A301 RMK A01 T02350199  RH  080%=      5-min Rain = 0
KSE2 101230Z 16008G13KT 24/20 A301 RMK A01 T02350199  RH  080%=      5-min Rain = 0
KSE2 101231Z 16011KT 24/20 A301 RMK A01 T02350199  RH  080%=      5-min Rain = 0
KSE2 101232Z 16008KT 24/20 A301 RMK A01 T02350200  RH  080%=      5-min Rain = 0
KSE2 101233Z 16009KT 24/20 A301 RMK A01 T02350199  RH  080%=      5-min Rain = 0
KSE2 101234Z 16009KT 24/20 A301 RMK A01 T02350199  RH  080%=      5-min Rain = 0
KSE2 101235Z 16008KT 24/20 A301 RMK A01 T02350199  RH  080%=      5-min Rain = 0
KSE2 101236Z 16009KT 24/20 A301 RMK A01 T02350200  RH  080%=      5-min Rain = 0
KSE2 101237Z 15009G15KT 24/20 A3011 RMK A01 T02350200  RH  080%=      5-min Rain = 0
KSE2 101238Z 16012KT 24/20 A3011 RMK A01 T02350200  RH  080%=      5-min Rain = 0
KSE2 101239Z 16010KT 24/20 A3011 RMK A01 T02350200  RH  081%=      5-min Rain = 0
KSE2 101240Z 16008KT 24/20 A3011 RMK A01 T02360200  RH  081%=      5-min Rain = 0
KSE2 101241Z 16007KT 24/20 A3011 RMK A01 T02360200  RH  080%=      5-min Rain = 0
KSE2 101242Z 16010KT 24/20 A3011 RMK A01 T02360200  RH  080%=      5-min Rain = 0
KSE2 101243Z 16011KT 24/20 A3011 RMK A01 T02360201  RH  080%=      5-min Rain = 0
KSE2 101244Z 17010KT 24/20 A3011 RMK A01 T02360200  RH  080%=      5-min Rain = 0
KSE2 101245Z 18007KT 24/20 A3011 RMK A01 T02360200  RH  080%=      5-min Rain = 0
KSE2 101246Z 16008KT 24/20 A3011 RMK A01 T02370201  RH  080%=      5-min Rain = 0
KSE2 101247Z 15007KT 24/20 A3011 RMK A01 T02370201  RH  080%=      5-min Rain = 0
KSE2 101248Z 17006KT 24/20 A3011 RMK A01 T02380201  RH  080%=      5-min Rain = 0
KSE2 101249Z 17009G14KT 24/20 A3011 RMK A01 T02380201  RH  080%=      5-min Rain = 0
KSE2 101250Z 17010KT 24/20 A3011 RMK A01 T02380200  RH  080%=      5-min Rain = 0
KSE2 101251Z 17008G13KT 24/20 A3011 RMK A01 T02380201  RH  080%=      5-min Rain = 0
KSE2 101252Z 16008KT 24/20 A3011 RMK A01 T02380200  RH  080%=      5-min Rain = 0
KSE2 101253Z 18009KT 24/20 A3011 RMK A01 T02380201  RH  079%=      5-min Rain = 0
KSE2 101254Z 17008KT 24/20 A3011 RMK A01 T02380201  RH  079%=      5-min Rain = 0
KSE2 101255Z 16012G18KT 24/20 A3011 RMK A01 T02380200  RH  079%=      5-min Rain = 0
KSE2 101256Z 16011KT 24/20 A3011 RMK A01 T02380200  RH  079%=      5-min Rain = 0
KSE2 101257Z 17008KT 24/20 A3011 RMK A01 T02380200  RH  079%=      5-min Rain = 0
KSE2 101258Z 18011KT 24/20 A3011 RMK A01 T02380201  RH  079%=      5-min Rain = 0
KSE2 101259Z 18012KT 24/20 A3011 RMK A01 T02380200  RH  079%=      5-min Rain = 0
KSE2 101300Z 16011KT 24/20 A3011 RMK A01 T02380200  RH  079%=      5-min Rain = 0
KSE2 101301Z 17012KT 24/20 A3011 RMK A01 T02380200  RH  079%=      5-min Rain = 0
KSE2 101302Z 16009G14KT 24/20 A3011 RMK A01 T02380200  RH  079%=      5-min Rain = 0
KSE2 101303Z 17009G14KT 24/20 A3011 RMK A01 T02380200  RH  079%=      5-min Rain = 0
KSE2 101304Z 17011KT 24/20 A3011 RMK A01 T02380200  RH  079%=      5-min Rain = 0
KSE2 101305Z 17012KT 24/20 A3011 RMK A01 T02390200  RH  079%=      5-min Rain = 0
KSE2 101306Z 16013KT 24/20 A3011 RMK A01 T02390200  RH  079%=      5-min Rain = 0
KSE2 101307Z 16011KT 24/20 A3011 RMK A01 T02390201  RH  079%=      5-min Rain = 0
KSE2 101308Z 17013KT 24/20 A3011 RMK A01 T02390201  RH  079%=      5-min Rain = 0
KSE2 101309Z 17014G19KT 24/20 A3011 RMK A01 T02390200  RH  079%=      5-min Rain = 0
KSE2 101310Z 17010KT 24/20 A3011 RMK A01 T02380200  RH  079%=      5-min Rain = 0
KSE2 101311Z 17011KT 24/20 A3011 RMK A01 T02380201  RH  079%=      5-min Rain = 0
KSE2 101312Z 16009KT 24/20 A3011 RMK A01 T02390201  RH  079%=      5-min Rain = 0
KSE2 101313Z 16010G15KT 24/20 A3011 RMK A01 T02390201  RH  079%=      5-min Rain = 0
KSE2 101314Z 17016KT 24/20 A3011 RMK A01 T02400200  RH  079%=      5-min Rain = 0
KSE2 101315Z 17012G17KT 24/20 A3011 RMK A01 T02400200  RH  078%=      5-min Rain = 0
KSE2 101316Z 16013KT 24/20 A3011 RMK A01 T02400200  RH  078%=      5-min Rain = 0
KSE2 101317Z 16011G16KT 24/20 A3011 RMK A01 T02390200  RH  079%=      5-min Rain = 0
KSE2 101318Z 16011KT 24/20 A3011 RMK A01 T02400200  RH  078%=      5-min Rain = 0
KSE2 101319Z 17013G18KT 24/20 A3011 RMK A01 T02400201  RH  078%=      5-min Rain = 0
KSE2 101320Z 16014KT 24/20 A3011 RMK A01 T02410199  RH  078%=      5-min Rain = 0
KSE2 101321Z 17014G19KT 24/20 A3011 RMK A01 T02410199  RH  077%=      5-min Rain = 0
KSE2 101322Z 17011KT 24/20 A3011 RMK A01 T02410200  RH  078%=      5-min Rain = 0
KSE2 101323Z 17014G19KT 24/20 A3011 RMK A01 T02420199  RH  077%=      5-min Rain = 0
KSE2 101324Z 17011G18KT 24/20 A3011 RMK A01 T02420199  RH  077%=      5-min Rain = 0
KSE2 101325Z 17011G18KT 24/20 A3011 RMK A01 T02430199  RH  077%=      5-min Rain = 0
KSE2 101326Z 17014G19KT 24/20 A3011 RMK A01 T02430199  RH  077%=      5-min Rain = 0
KSE2 101327Z 16012KT 24/20 A3011 RMK A01 T02430200  RH  077%=      5-min Rain = 0
KSE2 101328Z 16012KT 24/20 A3011 RMK A01 T02430199  RH  076%=      5-min Rain = 0
KSE2 101329Z 16009KT 24/20 A3011 RMK A01 T02430199  RH  076%=      5-min Rain = 0
KSE2 101330Z 15012KT 24/20 A3011 RMK A01 T02440200  RH  076%=      5-min Rain = 0
KSE2 101331Z 16012KT 25/20 A3011 RMK A01 T02450200  RH  076%=      5-min Rain = 0
KSE2 101332Z 16011G19KT 25/20 A3011 RMK A01 T02450199  RH  076%=      5-min Rain = 0
KSE2 101333Z 16012G17KT 25/20 A3011 RMK A01 T02460199  RH  075%=      5-min Rain = 0
KSE2 101334Z 16013G19KT 25/20 A3011 RMK A01 T02460198  RH  074%=      5-min Rain = 0
KSE2 101335Z 17015G20KT 25/20 A3011 RMK A01 T02460198  RH  075%=      5-min Rain = 0
KSE2 101336Z 15013KT 25/20 A3011 RMK A01 T02460198  RH  075%=      5-min Rain = 0
KSE2 101337Z 17014G19KT 25/20 A3012 RMK A01 T02460197  RH  074%=      5-min Rain = 0
KSE2 101338Z 16013G18KT 25/20 A3012 RMK A01 T02460197  RH  074%=      5-min Rain = 0
KSE2 101339Z 16016KT 25/20 A3012 RMK A01 T02460198  RH  074%=      5-min Rain = 0
KSE2 101340Z 18014G19KT 25/20 A3012 RMK A01 T02470197  RH  074%=      5-min Rain = 0
KSE2 101341Z 18010G17KT 25/20 A3012 RMK A01 T02470198  RH  074%=      5-min Rain = 0
KSE2 101342Z 16013G19KT 25/20 A3012 RMK A01 T02470198  RH  074%=      5-min Rain = 0
KSE2 101343Z 17016G21KT 25/20 A3012 RMK A01 T02470197  RH  074%=      5-min Rain = 0
KSE2 101344Z 18016KT 25/20 A3012 RMK A01 T02470197  RH  074%=      5-min Rain = 0
KSE2 101345Z 17014G19KT 25/20 A3012 RMK A01 T02450197  RH  074%=      5-min Rain = 0
KSE2 101346Z 17011G17KT 25/20 A3012 RMK A01 T02450197  RH  075%=      5-min Rain = 0
KSE2 101347Z 15013G18KT 25/20 A3012 RMK A01 T02460198  RH  075%=      5-min Rain = 0
KSE2 101348Z 16013G18KT 25/20 A3012 RMK A01 T02460198  RH  074%=      5-min Rain = 0
KSE2 101349Z 18014KT 25/20 A3012 RMK A01 T02470199  RH  074%=      5-min Rain = 0
KSE2 101350Z 16012G18KT 25/20 A3012 RMK A01 T02480198  RH  074%=      5-min Rain = 0
KSE2 101351Z 17013KT 25/20 A3012 RMK A01 T02480198  RH  074%=      5-min Rain = 0
KSE2 101352Z 18014G20KT 25/20 A3012 RMK A01 T02490198  RH  073%=      5-min Rain = 0
KSE2 101353Z 18014KT 25/20 A3012 RMK A01 T02490198  RH  073%=      5-min Rain = 0
KSE2 101354Z 19013KT 25/20 A3012 RMK A01 T02490198  RH  073%=      5-min Rain = 0
KSE2 101355Z 19011G17KT 25/20 A3012 RMK A01 T02500198  RH  073%=      5-min Rain = 0
KSE2 101356Z 17011G16KT 25/20 A3012 RMK A01 T02500198  RH  073%=      5-min Rain = 0
KSE2 101357Z 19011KT 25/20 A3012 RMK A01 T02520199  RH  072%=      5-min Rain = 0
KSE2 101358Z 16013G19KT 25/20 A3012 RMK A01 T02530197  RH  071%=      5-min Rain = 0
KSE2 101359Z 16014KT 25/20 A3012 RMK A01 T02530195  RH  070%=      5-min Rain = 0
KSE2 101400Z 16013KT 25/19 A3012 RMK A01 T02530194  RH  070%=      5-min Rain = 0
KSE2 101401Z 15014KT 25/20 A3012 RMK A01 T02530196  RH  071%=      5-min Rain = 0
KSE2 101402Z 16010G15KT 25/20 A3012 RMK A01 T02530197  RH  071%=      5-min Rain = 0
KSE2 101403Z 17012KT 25/20 A3012 RMK A01 T02540197  RH  071%=      5-min Rain = 0
KSE2 101404Z 18009G14KT 26/20 A3012 RMK A01 T02550197  RH  070%=      5-min Rain = 0
KSE2 101405Z 16010G15KT 26/20 A3013 RMK A01 T02560198  RH  070%=      5-min Rain = 0
KSE2 101406Z 15013KT 26/20 A3013 RMK A01 T02570197  RH  069%=      5-min Rain = 0
KSE2 101407Z 16012KT 26/20 A3013 RMK A01 T02560196  RH  069%=      5-min Rain = 0
KSE2 101408Z 17014G21KT 26/20 A3013 RMK A01 T02550196  RH  070%=      5-min Rain = 0
KSE2 101409Z 17009G14KT 26/20 A3013 RMK A01 T02560196  RH  070%=      5-min Rain = 0
KSE2 101410Z 16013G19KT 26/20 A3013 RMK A01 T02560196  RH  069%=      5-min Rain = 0
KSE2 101411Z 16010G15KT 26/20 A3013 RMK A01 T02570195  RH  069%=      5-min Rain = 0
KSE2 101412Z 16010G17KT 26/20 A3013 RMK A01 T02580195  RH  068%=      5-min Rain = 0
KSE2 101413Z 17014KT 26/20 A3013 RMK A01 T02590195  RH  067%=      5-min Rain = 0
KSE2 101414Z 17015KT 26/19 A3013 RMK A01 T02590194  RH  067%=      5-min Rain = 0
KSE2 101415Z 17011G17KT 26/20 A3013 RMK A01 T02580195  RH  068%=      5-min Rain = 0
KSE2 101416Z 16012KT 26/20 A3013 RMK A01 T02570195  RH  069%=      5-min Rain = 0
KSE2 101417Z 17013G18KT 26/20 A3013 RMK A01 T02570196  RH  069%=      5-min Rain = 0
KSE2 101418Z 16009G14KT 26/20 A3013 RMK A01 T02570196  RH  069%=      5-min Rain = 0
KSE2 101419Z 16011KT 26/20 A3013 RMK A01 T02590198  RH  069%=      5-min Rain = 0
KSE2 101420Z 16012G18KT 26/20 A3013 RMK A01 T02600198  RH  068%=      5-min Rain = 0
KSE2 101421Z 16010KT 26/20 A3013 RMK A01 T02600197  RH  068%=      5-min Rain = 0
KSE2 101422Z 18010KT 26/20 A3013 RMK A01 T02620198  RH  068%=      5-min Rain = 0
KSE2 101423Z 16007KT 26/20 A3013 RMK A01 T02630198  RH  067%=      5-min Rain = 0
KSE2 101424Z 17010KT 27/20 A3013 RMK A01 T02650198  RH  067%=      5-min Rain = 0
KSE2 101425Z 17009KT 27/20 A3013 RMK A01 T02650197  RH  066%=      5-min Rain = 0
KSE2 101426Z 16010KT 27/20 A3013 RMK A01 T02650197  RH  066%=      5-min Rain = 0
KSE2 101427Z 17007G12KT 27/20 A3013 RMK A01 T02660196  RH  066%=      5-min Rain = 0
KSE2 101428Z 16008KT 27/20 A3013 RMK A01 T02680197  RH  065%=      5-min Rain = 0
KSE2 101429Z 16009G14KT 27/20 A3013 RMK A01 T02680197  RH  065%=      5-min Rain = 0
KSE2 101430Z 16010G15KT 27/20 A3013 RMK A01 T02680197  RH  065%=      5-min Rain = 0
KSE2 101431Z 18010KT 27/20 A3013 RMK A01 T02670197  RH  065%=      5-min Rain = 0
KSE2 101432Z 18008KT 27/20 A3013 RMK A01 T02670198  RH  066%=      5-min Rain = 0
KSE2 101433Z 17008KT 27/20 A3013 RMK A01 T02680198  RH  065%=      5-min Rain = 0
KSE2 101434Z 17011G16KT 27/20 A3013 RMK A01 T02690197  RH  065%=      5-min Rain = 0
KSE2 101435Z 17012KT 27/20 A3013 RMK A01 T02700197  RH  064%=      5-min Rain = 0
KSE2 101436Z 17010KT 27/20 A3013 RMK A01 T02680196  RH  065%=      5-min Rain = 0
KSE2 101437Z 16010KT 27/20 A3013 RMK A01 T02670197  RH  065%=      5-min Rain = 0
KSE2 101438Z 16011KT 27/20 A3013 RMK A01 T02670196  RH  065%=      5-min Rain = 0
KSE2 101439Z 17010KT 27/20 A3013 RMK A01 T02650196  RH  066%=      5-min Rain = 0
KSE2 101440Z 19011G17KT 27/20 A3013 RMK A01 T02660196  RH  065%=      5-min Rain = 0
KSE2 101441Z 17010KT 27/20 A3013 RMK A01 T02670195  RH  064%=      5-min Rain = 0
KSE2 101442Z 17013KT 27/20 A3013 RMK A01 T02670195  RH  064%=      5-min Rain = 0
KSE2 101443Z 19012G17KT 27/19 A3013 RMK A01 T02680194  RH  064%=      5-min Rain = 0
KSE2 101444Z 19014KT 27/19 A3013 RMK A01 T02680194  RH  064%=      5-min Rain = 0
KSE2 101445Z 18009KT 27/19 A3013 RMK A01 T02680194  RH  064%=      5-min Rain = 0
KSE2 101446Z 17008G14KT 27/20 A3013 RMK A01 T02700195  RH  064%=      5-min Rain = 0
KSE2 101447Z 16011KT 27/20 A3013 RMK A01 T02720196  RH  063%=      5-min Rain = 0
KSE2 101448Z 16010G15KT 27/20 A3013 RMK A01 T02720196  RH  063%=      5-min Rain = 0
KSE2 101449Z 16009KT 27/20 A3013 RMK A01 T02720196  RH  063%=      5-min Rain = 0
KSE2 101450Z 18010G15KT 27/20 A3013 RMK A01 T02740195  RH  062%=      5-min Rain = 0
KSE2 101451Z 17009G15KT 28/20 A3013 RMK A01 T02750196  RH  062%=      5-min Rain = 0
KSE2 101452Z 18009KT 28/20 A3013 RMK A01 T02760196  RH  062%=      5-min Rain = 0
KSE2 101453Z 17008G13KT 28/20 A3013 RMK A01 T02770196  RH  061%=      5-min Rain = 0
KSE2 101454Z 17011G17KT 28/19 A3013 RMK A01 T02770194  RH  061%=      5-min Rain = 0
KSE2 101455Z 16013KT 28/20 A3013 RMK A01 T02770195  RH  061%=      5-min Rain = 0
KSE2 101456Z 16014KT 28/20 A3013 RMK A01 T02760195  RH  061%=      5-min Rain = 0
KSE2 101457Z 17013KT 27/19 A3013 RMK A01 T02740194  RH  062%=      5-min Rain = 0
KSE2 101458Z 17013KT 27/19 A3013 RMK A01 T02720193  RH  062%=      5-min Rain = 0
KSE2 101459Z 17012G17KT 27/19 A3013 RMK A01 T02720194  RH  062%=      5-min Rain = 0
KSE2 101500Z 16011KT 27/19 A3013 RMK A01 T02730194  RH  062%=      5-min Rain = 0
KSE2 101501Z 17012KT 27/19 A3013 RMK A01 T02740194  RH  061%=      5-min Rain = 0
KSE2 101502Z 16009G15KT 27/19 A3013 RMK A01 T02740194  RH  062%=      5-min Rain = 0
KSE2 101503Z 16015KT 28/19 A3013 RMK A01 T02750194  RH  061%=      5-min Rain = 0
KSE2 101504Z 18014G19KT 28/19 A3013 RMK A01 T02760191  RH  060%=      5-min Rain = 0
KSE2 101505Z 16011G18KT 28/19 A3013 RMK A01 T02770189  RH  059%=      5-min Rain = 0
KSE2 101506Z 15015KT 28/19 A3013 RMK A01 T02770190  RH  059%=      5-min Rain = 0
KSE2 101507Z 15011G17KT 28/19 A3013 RMK A01 T02750190  RH  060%=      5-min Rain = 0
KSE2 101508Z 17011G19KT 28/19 A3013 RMK A01 T02760192  RH  060%=      5-min Rain = 0
KSE2 101509Z 16012KT 28/19 A3013 RMK A01 T02790189  RH  058%=      5-min Rain = 0
KSE2 101510Z 18013KT 28/19 A3013 RMK A01 T02790189  RH  058%=      5-min Rain = 0
KSE2 101511Z 16012KT 28/19 A3013 RMK A01 T02790189  RH  058%=      5-min Rain = 0
KSE2 101512Z 18012G17KT 28/19 A3013 RMK A01 T02790189  RH  058%=      5-min Rain = 0
KSE2 101513Z 18014G20KT 28/19 A3013 RMK A01 T02790189  RH  058%=      5-min Rain = 0
KSE2 101514Z 17012KT 28/19 A3013 RMK A01 T02800189  RH  058%=      5-min Rain = 0
KSE2 101515Z 18016G23KT 28/19 A3013 RMK A01 T02790187  RH  057%=      5-min Rain = 0
KSE2 101516Z 19013KT 28/19 A3013 RMK A01 T02780186  RH  057%=      5-min Rain = 0
KSE2 101517Z 19011KT 28/19 A3013 RMK A01 T02780187  RH  058%=      5-min Rain = 0
KSE2 101518Z 18010G15KT 28/19 A3013 RMK A01 T02800189  RH  058%=      5-min Rain = 0
KSE2 101519Z 17013KT 28/19 A3013 RMK A01 T02830190  RH  057%=      5-min Rain = 0
KSE2 101520Z 18011KT 28/19 A3013 RMK A01 T02830189  RH  057%=      5-min Rain = 0
KSE2 101521Z 19015KT 28/19 A3013 RMK A01 T02830189  RH  057%=      5-min Rain = 0
KSE2 101522Z 19015G21KT 28/19 A3013 RMK A01 T02820189  RH  057%=      5-min Rain = 0
KSE2 101523Z 18012G18KT 28/19 A3013 RMK A01 T02800188  RH  057%=      5-min Rain = 0
KSE2 101524Z 19014KT 28/19 A3013 RMK A01 T02800187  RH  057%=      5-min Rain = 0
KSE2 101525Z 20015G20KT 28/19 A3013 RMK A01 T02810185  RH  056%=      5-min Rain = 0
KSE2 101526Z 19014G20KT 28/19 A3013 RMK A01 T02810185  RH  056%=      5-min Rain = 0
KSE2 101527Z 19014G21KT 28/19 A3013 RMK A01 T02820187  RH  056%=      5-min Rain = 0
KSE2 101528Z 18014G20KT 28/19 A3013 RMK A01 T02830186  RH  056%=      5-min Rain = 0
KSE2 101529Z 18013G18KT 28/19 A3013 RMK A01 T02820187  RH  056%=      5-min Rain = 0
KSE2 101530Z 19014G22KT 28/19 A3013 RMK A01 T02820187  RH  056%=      5-min Rain = 0
KSE2 101531Z 19016G21KT 28/19 A3013 RMK A01 T02820186  RH  056%=      5-min Rain = 0
KSE2 101532Z 18010G17KT 28/19 A3013 RMK A01 T02830187  RH  056%=      5-min Rain = 0
KSE2 101533Z 18013G19KT 29/19 A3013 RMK A01 T02860188  RH  055%=      5-min Rain = 0
KSE2 101534Z 19013G19KT 29/19 A3013 RMK A01 T02870186  RH  054%=      5-min Rain = 0
KSE2 101535Z 19014G20KT 29/19 A3013 RMK A01 T02870186  RH  055%=      5-min Rain = 0
KSE2 101536Z 19016G21KT 29/19 A3013 RMK A01 T02860186  RH  055%=      5-min Rain = 0
KSE2 101537Z 18014KT 28/19 A3013 RMK A01 T02840185  RH  055%=      5-min Rain = 0
KSE2 101538Z 18012G18KT 28/19 A3013 RMK A01 T02840185  RH  055%=      5-min Rain = 0
KSE2 101539Z 18010G16KT 29/19 A3013 RMK A01 T02870187  RH  055%=      5-min Rain = 0
KSE2 101540Z 17011KT 29/19 A3013 RMK A01 T02890187  RH  054%=      5-min Rain = 0
KSE2 101541Z 18007KT 29/19 A3013 RMK A01 T02900187  RH  054%=      5-min Rain = 0
KSE2 101542Z 19013G21KT 29/19 A3013 RMK A01 T02920188  RH  053%=      5-min Rain = 0
KSE2 101543Z 19016G25KT 29/19 A3013 RMK A01 T02920186  RH  053%=      5-min Rain = 0
KSE2 101544Z 18017KT 29/19 A3013 RMK A01 T02900185  RH  053%=      5-min Rain = 0
KSE2 101545Z 18015KT 29/18 A3013 RMK A01 T02880184  RH  053%=      5-min Rain = 0
KSE2 101546Z 18013KT 29/19 A3013 RMK A01 T02880185  RH  054%=      5-min Rain = 0
KSE2 101547Z 19018KT 29/19 A3013 RMK A01 T02890185  RH  053%=      5-min Rain = 0
KSE2 101548Z 18009G15KT 29/19 A3013 RMK A01 T02880185  RH  054%=      5-min Rain = 0
KSE2 101549Z 19013G18KT 29/19 A3013 RMK A01 T02890187  RH  054%=      5-min Rain = 0
KSE2 101550Z 18014G21KT 29/19 A3013 RMK A01 T02890186  RH  054%=      5-min Rain = 0
KSE2 101551Z 14016KT 29/19 A3013 RMK A01 T02900188  RH  054%=      5-min Rain = 0
KSE2 101552Z 16015G21KT 29/18 A3013 RMK A01 T02890184  RH  053%=      5-min Rain = 0
KSE2 101553Z 19015KT 29/19 A3013 RMK A01 T02890186  RH  054%=      5-min Rain = 0
KSE2 101554Z 18015G20KT 29/19 A3013 RMK A01 T02890186  RH  054%=      5-min Rain = 0
KSE2 101555Z 17014G19KT 29/19 A3013 RMK A01 T02880185  RH  054%=      5-min Rain = 0
KSE2 101556Z 17014KT 29/19 A3013 RMK A01 T02880185  RH  054%=      5-min Rain = 0
KSE2 101557Z 19012G18KT 29/18 A3013 RMK A01 T02870184  RH  054%=      5-min Rain = 0
KSE2 101558Z 17011G17KT 29/19 A3013 RMK A01 T02890185  RH  053%=      5-min Rain = 0
KSE2 101559Z 17009G15KT 29/19 A3013 RMK A01 T02910187  RH  053%=      5-min Rain = 0
KSE2 101600Z 18013KT 29/19 A3013 RMK A01 T02930188  RH  053%=      5-min Rain = 0
KSE2 101601Z 18014KT 30/19 A3013 RMK A01 T02950189  RH  053%=      5-min Rain = 0
KSE2 101602Z 16010KT 30/19 A3013 RMK A01 T02950186  RH  052%=      5-min Rain = 0
KSE2 101603Z 15013KT 29/19 A3013 RMK A01 T02930189  RH  053%=      5-min Rain = 0
KSE2 101604Z 15014G19KT 29/19 A3013 RMK A01 T02920188  RH  053%=      5-min Rain = 0
KSE2 101605Z 16012G17KT 29/19 A3013 RMK A01 T02920187  RH  053%=      5-min Rain = 0
KSE2 101606Z 19015G22KT 29/19 A3013 RMK A01 T02930187  RH  053%=      5-min Rain = 0
KSE2 101607Z 19015KT 29/19 A3013 RMK A01 T02940185  RH  052%=      5-min Rain = 0
KSE2 101608Z 18011G16KT 29/19 A3013 RMK A01 T02940185  RH  052%=      5-min Rain = 0
KSE2 101609Z 18007G13KT 30/19 A3013 RMK A01 T02960186  RH  052%=      5-min Rain = 0
KSE2 101610Z 18009G16KT 30/19 A3013 RMK A01 T02990186  RH  051%=      5-min Rain = 0
KSE2 101611Z 18009G14KT 30/19 A3013 RMK A01 T03010188  RH  051%=      5-min Rain = 0
KSE2 101612Z 15013KT 30/19 A3013 RMK A01 T03010187  RH  051%=      5-min Rain = 0
KSE2 101613Z 14012KT 30/19 A3013 RMK A01 T02980185  RH  051%=      5-min Rain = 0
KSE2 101614Z 15015KT 30/19 A3013 RMK A01 T02960185  RH  051%=      5-min Rain = 0
KSE2 101615Z 16012KT 30/18 A3013 RMK A01 T02960184  RH  051%=      5-min Rain = 0
KSE2 101616Z 16010KT 30/19 A3013 RMK A01 T02970186  RH  051%=      5-min Rain = 0
KSE2 101617Z 18010KT 30/19 A3013 RMK A01 T03010188  RH  051%=      5-min Rain = 0
KSE2 101618Z 18010G17KT 30/19 A3013 RMK A01 T03030189  RH  050%=      5-min Rain = 0
KSE2 101619Z 17011G16KT 30/19 A3013 RMK A01 T03010188  RH  051%=      5-min Rain = 0
KSE2 101620Z 16011G16KT 30/19 A3013 RMK A01 T02990186  RH  051%=      5-min Rain = 0
KSE2 101621Z 15010G16KT 30/19 A3013 RMK A01 T03010188  RH  051%=      5-min Rain = 0
KSE2 101622Z 14014G19KT 30/19 A3013 RMK A01 T03020186  RH  050%=      5-min Rain = 0
KSE2 101623Z 14013KT 30/19 A3013 RMK A01 T02990185  RH  050%=      5-min Rain = 0
KSE2 101624Z 14014KT 30/19 A3013 RMK A01 T02970185  RH  051%=      5-min Rain = 0
KSE2 101625Z 14013KT 30/18 A3013 RMK A01 T02950184  RH  051%=      5-min Rain = 0
KSE2 101626Z 16013KT 29/19 A3013 RMK A01 T02940185  RH  052%=      5-min Rain = 0
KSE2 101627Z 15012G19KT 30/19 A3012 RMK A01 T02980186  RH  051%=      5-min Rain = 0
KSE2 101628Z 16017KT 30/18 A3012 RMK A01 T02990184  RH  050%=      5-min Rain = 0
KSE2 101629Z 16014G20KT 30/18 A3013 RMK A01 T02970183  RH  050%=      5-min Rain = 0
KSE2 101630Z 17012KT 30/18 A3013 RMK A01 T02960184  RH  051%=      5-min Rain = 0
KSE2 101631Z 14012KT 30/18 A3013 RMK A01 T02980184  RH  051%=      5-min Rain = 0
KSE2 101632Z 15016KT 30/18 A3013 RMK A01 T03000183  RH  049%=      5-min Rain = 0
KSE2 101633Z 15015KT 30/18 A3013 RMK A01 T02980180  RH  049%=      5-min Rain = 0
KSE2 101634Z 15015KT 30/18 A3013 RMK A01 T02970181  RH  050%=      5-min Rain = 0
KSE2 101635Z 17012KT 30/18 A3013 RMK A01 T02980181  RH  050%=      5-min Rain = 0
KSE2 101636Z 16014G21KT 30/18 A3013 RMK A01 T03000182  RH  049%=      5-min Rain = 0
KSE2 101637Z 15016KT 30/18 A3013 RMK A01 T03010182  RH  049%=      5-min Rain = 0
KSE2 101638Z 16012KT 30/18 A3013 RMK A01 T03000182  RH  049%=      5-min Rain = 0
KSE2 101639Z 16012KT 30/18 A3012 RMK A01 T03020182  RH  049%=      5-min Rain = 0
KSE2 101640Z 14014G20KT 31/18 A3012 RMK A01 T03070182  RH  047%=      5-min Rain = 0
KSE2 101641Z 16014G20KT 31/18 A3012 RMK A01 T03080180  RH  047%=      5-min Rain = 0
KSE2 101642Z 15014G21KT 31/18 A3012 RMK A01 T03070180  RH  047%=      5-min Rain = 0
KSE2 101643Z 14014KT 31/18 A3012 RMK A01 T03070180  RH  047%=      5-min Rain = 0
KSE2 101644Z 14014G19KT 31/18 A3012 RMK A01 T03050179  RH  047%=      5-min Rain = 0
KSE2 101645Z 16012G17KT 30/18 A3012 RMK A01 T03030180  RH  048%=      5-min Rain = 0
KSE2 101646Z 17010G16KT 30/18 A3012 RMK A01 T03040182  RH  048%=      5-min Rain = 0
KSE2 101647Z 17013G18KT 31/18 A3012 RMK A01 T03080182  RH  047%=      5-min Rain = 0
KSE2 101648Z 18009KT 31/18 A3012 RMK A01 T03070181  RH  047%=      5-min Rain = 0
KSE2 101649Z 17014KT 31/18 A3012 RMK A01 T03060181  RH  047%=      5-min Rain = 0
KSE2 101650Z 16013KT 31/18 A3012 RMK A01 T03050179  RH  047%=      5-min Rain = 0
KSE2 101651Z 16015KT 30/18 A3012 RMK A01 T03040177  RH  047%=      5-min Rain = 0
KSE2 101652Z 14011KT 30/18 A3012 RMK A01 T03010175  RH  047%=      5-min Rain = 0
KSE2 101653Z 15010G17KT 30/18 A3012 RMK A01 T03010177  RH  047%=      5-min Rain = 0
KSE2 101654Z 16009KT 30/18 A3012 RMK A01 T03020179  RH  048%=      5-min Rain = 0
KSE2 101655Z 17010KT 30/18 A3012 RMK A01 T03040180  RH  047%=      5-min Rain = 0
KSE2 101656Z 17008KT 31/18 A3012 RMK A01 T03050180  RH  047%=      5-min Rain = 0
KSE2 101657Z 16010KT 31/18 A3012 RMK A01 T03050181  RH  047%=      5-min Rain = 0
KSE2 101658Z 17009G15KT 31/18 A3012 RMK A01 T03070181  RH  047%=      5-min Rain = 0
KSE2 101659Z 15009KT 31/18 A3012 RMK A01 T03110182  RH  046%=      5-min Rain = 0
KSE2 101700Z 13014G21KT 32/18 A3012 RMK A01 T03160183  RH  045%=      5-min Rain = 0
KSE2 101701Z 14017KT 32/18 A3012 RMK A01 T03150180  RH  045%=      5-min Rain = 0
KSE2 101702Z 16015G21KT 31/18 A3012 RMK A01 T03110180  RH  046%=      5-min Rain = 0
KSE2 101703Z 15016KT 31/18 A3012 RMK A01 T03080180  RH  047%=      5-min Rain = 0
KSE2 101704Z 16008G14KT 31/18 A3012 RMK A01 T03070182  RH  047%=      5-min Rain = 0
KSE2 101705Z 19012KT 31/18 A3012 RMK A01 T03100183  RH  047%=      5-min Rain = 0
KSE2 101706Z 20009KT 31/18 A3012 RMK A01 T03090182  RH  047%=      5-min Rain = 0
KSE2 101707Z 16007KT 31/18 A3012 RMK A01 T03090182  RH  047%=      5-min Rain = 0
KSE2 101708Z 15014KT 31/18 A3012 RMK A01 T03140182  RH  045%=      5-min Rain = 0
KSE2 101709Z 16014KT 31/18 A3012 RMK A01 T03140178  RH  044%=      5-min Rain = 0
KSE2 101710Z 15013G19KT 31/18 A3012 RMK A01 T03110178  RH  045%=      5-min Rain = 0
KSE2 101711Z 15013KT 31/18 A3012 RMK A01 T03110177  RH  045%=      5-min Rain = 0
KSE2 101712Z 14015KT 31/18 A3012 RMK A01 T03080177  RH  045%=      5-min Rain = 0
KSE2 101713Z 17009KT 31/18 A3012 RMK A01 T03100177  RH  045%=      5-min Rain = 0
KSE2 101714Z 18011G16KT 32/18 A3012 RMK A01 T03150180  RH  045%=      5-min Rain = 0
KSE2 101715Z 17011KT 32/18 A3012 RMK A01 T03160177  RH  043%=      5-min Rain = 0
KSE2 101716Z 17008G15KT 31/18 A3012 RMK A01 T03140178  RH  044%=      5-min Rain = 0
KSE2 101717Z 18010KT 32/18 A3012 RMK A01 T03170179  RH  044%=      5-min Rain = 0
KSE2 101718Z 18012KT 32/18 A3012 RMK A01 T03200180  RH  043%=      5-min Rain = 0
KSE2 101719Z 18012KT 32/18 A3012 RMK A01 T03210176  RH  042%=      5-min Rain = 0
KSE2 101720Z 18009KT 32/17 A3012 RMK A01 T03190174  RH  042%=      5-min Rain = 0
KSE2 101721Z 18015KT 32/17 A3012 RMK A01 T03180174  RH  042%=      5-min Rain = 0
KSE2 101722Z 16012KT 32/18 A3012 RMK A01 T03160176  RH  043%=      5-min Rain = 0
KSE2 101723Z 17011G18KT 32/18 A3012 RMK A01 T03170179  RH  044%=      5-min Rain = 0
KSE2 101724Z 15010G16KT 32/18 A3012 RMK A01 T03180179  RH  044%=      5-min Rain = 0
KSE2 101725Z 18011KT 32/18 A3012 RMK A01 T03180179  RH  044%=      5-min Rain = 0
KSE2 101726Z 19009KT 32/18 A3012 RMK A01 T03190178  RH  043%=      5-min Rain = 0
KSE2 101727Z 16009G14KT 32/18 A3012 RMK A01 T03200179  RH  043%=      5-min Rain = 0
KSE2 101728Z 15012KT 32/18 A3012 RMK A01 T03220178  RH  042%=      5-min Rain = 0
KSE2 101729Z 16012G17KT 32/18 A3011 RMK A01 T03180177  RH  043%=      5-min Rain = 0
KSE2 101730Z 17014G19KT 32/18 A3012 RMK A01 T03170176  RH  043%=      5-min Rain = 0
KSE2 101731Z 17012KT 32/18 A3012 RMK A01 T03180176  RH  043%=      5-min Rain = 0
KSE2 101732Z 16010KT 32/18 A3012 RMK A01 T03180176  RH  043%=      5-min Rain = 0
KSE2 101733Z 18007KT 32/18 A3011 RMK A01 T03150175  RH  043%=      5-min Rain = 0
KSE2 101734Z 21012G17KT 32/18 A3011 RMK A01 T03190178  RH  043%=      5-min Rain = 0
KSE2 101735Z 18015KT 32/18 A3011 RMK A01 T03210175  RH  042%=      5-min Rain = 0
KSE2 101736Z 16013G18KT 32/17 A3012 RMK A01 T03190174  RH  042%=      5-min Rain = 0
KSE2 101737Z 15013G18KT 32/18 A3011 RMK A01 T03180176  RH  043%=      5-min Rain = 0
KSE2 101738Z 15011KT 32/18 A3011 RMK A01 T03170176  RH  043%=      5-min Rain = 0
KSE2 101739Z 15012G19KT 32/18 A3011 RMK A01 T03210177  RH  042%=      5-min Rain = 0
KSE2 101740Z 19011KT 32/18 A3011 RMK A01 T03240177  RH  042%=      5-min Rain = 0
KSE2 101741Z 19011KT 32/18 A3011 RMK A01 T03240176  RH  041%=      5-min Rain = 0
KSE2 101742Z 14016G21KT 32/18 A3011 RMK A01 T03240178  RH  042%=      5-min Rain = 0
KSE2 101743Z 16014G20KT 32/17 A3011 RMK A01 T03210173  RH  041%=      5-min Rain = 0
KSE2 101744Z 15014KT 32/17 A3011 RMK A01 T03160172  RH  042%=      5-min Rain = 0
KSE2 101745Z 15019KT 32/17 A3011 RMK A01 T03170174  RH  042%=      5-min Rain = 0
KSE2 101746Z 16016KT 32/17 A3011 RMK A01 T03180172  RH  042%=      5-min Rain = 0
KSE2 101747Z 16009G14KT 32/17 A3011 RMK A01 T03180174  RH  042%=      5-min Rain = 0
KSE2 101748Z 14013KT 32/18 A3011 RMK A01 T03230175  RH  041%=      5-min Rain = 0
KSE2 101749Z 14015KT 32/17 A3011 RMK A01 T03220173  RH  041%=      5-min Rain = 0
KSE2 101750Z 14017KT 32/17 A3011 RMK A01 T03200174  RH  042%=      5-min Rain = 0
KSE2 101751Z 15012G18KT 32/17 A3011 RMK A01 T03170174  RH  042%=      5-min Rain = 0
KSE2 101752Z 16012G17KT 32/18 A3011 RMK A01 T03170175  RH  043%=      5-min Rain = 0
KSE2 101753Z 18011G16KT 32/18 A3011 RMK A01 T03190176  RH  043%=      5-min Rain = 0
KSE2 101754Z 17014KT 33/18 A3011 RMK A01 T03250178  RH  042%=      5-min Rain = 0
KSE2 101755Z 17013KT 33/18 A3011 RMK A01 T03260177  RH  041%=      5-min Rain = 0
KSE2 101756Z 18009G15KT 33/17 A3011 RMK A01 T03260172  RH  040%=      5-min Rain = 0
KSE2 101757Z 18011KT 33/17 A3011 RMK A01 T03250172  RH  040%=      5-min Rain = 0
KSE2 101758Z 18007G12KT 33/17 A3011 RMK A01 T03250171  RH  040%=      5-min Rain = 0
KSE2 101759Z 15010KT 33/17 A3011 RMK A01 T03250173  RH  040%=      5-min Rain = 0
KSE2 101800Z 15013KT 33/17 A3011 RMK A01 T03260174  RH  040%=      5-min Rain = 0
KSE2 101801Z 14009KT 32/17 A301 RMK A01 T03240173  RH  041%=      5-min Rain = 0
KSE2 101802Z 15011G18KT 33/17 A301 RMK A01 T03260174  RH  040%=      5-min Rain = 0
KSE2 101803Z 17016KT 33/18 A3011 RMK A01 T03270175  RH  040%=      5-min Rain = 0
KSE2 101804Z 16010G18KT 33/18 A3011 RMK A01 T03260175  RH  041%=      5-min Rain = 0
KSE2 101805Z 17011G16KT 33/18 A3011 RMK A01 T03270177  RH  041%=      5-min Rain = 0
KSE2 101806Z 16009KT 33/18 A3011 RMK A01 T03290177  RH  040%=      5-min Rain = 0
KSE2 101807Z 13012KT 33/18 A301 RMK A01 T03290176  RH  040%=      5-min Rain = 0
KSE2 101808Z 16011G17KT 33/18 A301 RMK A01 T03280177  RH  041%=      5-min Rain = 0
KSE2 101809Z 18012KT 33/18 A301 RMK A01 T03290177  RH  041%=      5-min Rain = 0
KSE2 101810Z 14011G16KT 33/18 A301 RMK A01 T03290178  RH  041%=      5-min Rain = 0
KSE2 101811Z 15012KT 33/18 A301 RMK A01 T03260175  RH  041%=      5-min Rain = 0
KSE2 101812Z 13013KT 32/17 A301 RMK A01 T03230174  RH  041%=      5-min Rain = 0
KSE2 101813Z 14009KT 32/18 A301 RMK A01 T03230175  RH  041%=      5-min Rain = 0
KSE2 101814Z 17011G16KT 33/18 A301 RMK A01 T03280176  RH  040%=      5-min Rain = 0
KSE2 101815Z 17012G17KT 33/18 A301 RMK A01 T03300175  RH  040%=      5-min Rain = 0
KSE2 101816Z 18007KT 33/17 A301 RMK A01 T03280173  RH  040%=      5-min Rain = 0
KSE2 101817Z 19006G11KT 33/17 A301 RMK A01 T03270172  RH  040%=      5-min Rain = 0
KSE2 101818Z 17009G19KT 33/17 A301 RMK A01 T03290174  RH  040%=      5-min Rain = 0
KSE2 101819Z 17009KT 33/17 A301 RMK A01 T03310170  RH  038%=      5-min Rain = 0
KSE2 101820Z 19010KT 33/17 A301 RMK A01 T03320168  RH  038%=      5-min Rain = 0
KSE2 101821Z 19013KT 33/17 A301 RMK A01 T03330168  RH  037%=      5-min Rain = 0
KSE2 101822Z 19012KT 33/17 A301 RMK A01 T03310167  RH  038%=      5-min Rain = 0
KSE2 101823Z 15007G12KT 33/17 A301 RMK A01 T03300168  RH  038%=      5-min Rain = 0
KSE2 101824Z 14011KT 34/18 A301 RMK A01 T03360175  RH  038%=      5-min Rain = 0
KSE2 101825Z 12012KT 34/17 A301 RMK A01 T03350173  RH  038%=      5-min Rain = 0
KSE2 101826Z 13013G19KT 33/17 A301 RMK A01 T03320173  RH  039%=      5-min Rain = 0
KSE2 101827Z 13010KT 33/17 A301 RMK A01 T03340173  RH  038%=      5-min Rain = 0
KSE2 101828Z 15008KT 34/17 A3009 RMK A01 T03350171  RH  038%=      5-min Rain = 0
KSE2 101829Z 18015G25KT 34/17 A3009 RMK A01 T03380172  RH  037%=      5-min Rain = 0
KSE2 101830Z 16017KT 34/17 A301 RMK A01 T03380167  RH  036%=      5-min Rain = 0
KSE2 101831Z 17012KT 34/17 A301 RMK A01 T03350165  RH  036%=      5-min Rain = 0
KSE2 101832Z 18015KT 33/16 A301 RMK A01 T03330164  RH  036%=      5-min Rain = 0
KSE2 101833Z 17014G20KT 33/16 A301 RMK A01 T03330163  RH  036%=      5-min Rain = 0
KSE2 101834Z 18015G20KT 34/16 A301 RMK A01 T03370163  RH  035%=      5-min Rain = 0
KSE2 101835Z 18012KT 33/16 A301 RMK A01 T03340160  RH  035%=      5-min Rain = 0
KSE2 101836Z 16013G19KT 33/16 A3009 RMK A01 T03330163  RH  036%=      5-min Rain = 0
KSE2 101837Z 17009KT 34/17 A301 RMK A01 T03350168  RH  037%=      5-min Rain = 0
KSE2 101838Z 19008G14KT 34/17 A301 RMK A01 T03400171  RH  037%=      5-min Rain = 0
KSE2 101839Z 18009KT 34/17 A3009 RMK A01 T03410169  RH  036%=      5-min Rain = 0
KSE2 101840Z 15006KT 34/17 A3009 RMK A01 T03370170  RH  037%=      5-min Rain = 0
KSE2 101841Z 14013KT 34/17 A3009 RMK A01 T03380169  RH  037%=      5-min Rain = 0
KSE2 101842Z 15013KT 33/17 A3009 RMK A01 T03340168  RH  037%=      5-min Rain = 0
KSE2 101843Z 16008G13KT 33/17 A3009 RMK A01 T03280167  RH  038%=      5-min Rain = 0
KSE2 101844Z 17007G12KT 33/17 A3009 RMK A01 T03270169  RH  039%=      5-min Rain = 0
KSE2 101845Z 19010G17KT 33/17 A3009 RMK A01 T03320170  RH  038%=      5-min Rain = 0
KSE2 101846Z 18011KT 34/17 A3009 RMK A01 T03360167  RH  037%=      5-min Rain = 0
KSE2 101847Z 17014KT 34/17 A3009 RMK A01 T03370170  RH  037%=      5-min Rain = 0
KSE2 101848Z 19010G16KT 34/17 A3009 RMK A01 T03370171  RH  037%=      5-min Rain = 0
KSE2 101849Z 18011G16KT 34/17 A3009 RMK A01 T03390169  RH  036%=      5-min Rain = 0
KSE2 101850Z 18007KT 34/17 A3009 RMK A01 T03390169  RH  036%=      5-min Rain = 0
KSE2 101851Z 18009G16KT 34/17 A3009 RMK A01 T03440170  RH  036%=      5-min Rain = 0
KSE2 101852Z 18009G15KT 34/17 A3009 RMK A01 T03420165  RH  035%=      5-min Rain = 0
KSE2 101853Z 17009G14KT 34/17 A3009 RMK A01 T03380167  RH  036%=      5-min Rain = 0
KSE2 101854Z 15013G20KT 34/17 A3009 RMK A01 T03390169  RH  036%=      5-min Rain = 0
KSE2 101855Z 16013G19KT 34/17 A3009 RMK A01 T03390171  RH  037%=      5-min Rain = 0
KSE2 101856Z 16011KT 34/17 A3009 RMK A01 T03360170  RH  037%=      5-min Rain = 0
KSE2 101857Z 14012G21KT 33/17 A3008 RMK A01 T03320169  RH  038%=      5-min Rain = 0
KSE2 101858Z 13013G18KT 33/17 A3008 RMK A01 T03330168  RH  037%=      5-min Rain = 0
KSE2 101859Z 14016KT 33/17 A3008 RMK A01 T03330168  RH  038%=      5-min Rain = 0
KSE2 101900Z 14013G18KT 33/17 A3008 RMK A01 T03320169  RH  038%=      5-min Rain = 0
KSE2 101901Z 15013KT 34/17 A3008 RMK A01 T03360171  RH  037%=      5-min Rain = 0
KSE2 101902Z 15014G21KT 34/17 A3008 RMK A01 T03390170  RH  037%=      5-min Rain = 0
KSE2 101903Z 19013G18KT 34/17 A3008 RMK A01 T03380170  RH  037%=      5-min Rain = 0
KSE2 101904Z 16015KT 34/17 A3008 RMK A01 T03380170  RH  037%=      5-min Rain = 0
KSE2 101905Z 15015KT 34/17 A3008 RMK A01 T03370169  RH  037%=      5-min Rain = 0
KSE2 101906Z 15015G21KT 34/17 A3008 RMK A01 T03370169  RH  037%=      5-min Rain = 0
KSE2 101907Z 15010KT 33/17 A3008 RMK A01 T03340168  RH  037%=      5-min Rain = 0
KSE2 101908Z 15009G20KT 33/17 A3008 RMK A01 T03310168  RH  038%=      5-min Rain = 0
KSE2 101909Z 16016G22KT 33/17 A3008 RMK A01 T03330170  RH  038%=      5-min Rain = 0
KSE2 101910Z 18012G18KT 34/17 A3008 RMK A01 T03350171  RH  038%=      5-min Rain = 0
KSE2 101911Z 18009G14KT 34/17 A3008 RMK A01 T03380172  RH  037%=      5-min Rain = 0
KSE2 101912Z 19014KT 34/17 A3008 RMK A01 T03390171  RH  037%=      5-min Rain = 0
KSE2 101913Z 17014KT 34/17 A3007 RMK A01 T03380169  RH  037%=      5-min Rain = 0
KSE2 101914Z 16012KT 34/17 A3008 RMK A01 T03400171  RH  036%=      5-min Rain = 0
KSE2 101915Z 14012KT 34/17 A3007 RMK A01 T03400169  RH  036%=      5-min Rain = 0
KSE2 101916Z 13013KT 34/17 A3007 RMK A01 T03370169  RH  037%=      5-min Rain = 0
KSE2 101917Z 17012G18KT 34/17 A3007 RMK A01 T03360170  RH  037%=      5-min Rain = 0
KSE2 101918Z 16014G19KT 34/17 A3007 RMK A01 T03410171  RH  036%=      5-min Rain = 0
KSE2 101919Z 14012KT 34/17 A3007 RMK A01 T03400168  RH  036%=      5-min Rain = 0
KSE2 101920Z 15011KT 34/17 A3007 RMK A01 T03380170  RH  037%=      5-min Rain = 0
KSE2 101921Z 18010KT 34/17 A3007 RMK A01 T03410172  RH  037%=      5-min Rain = 0
KSE2 101922Z 17011KT 34/17 A3007 RMK A01 T03390171  RH  037%=      5-min Rain = 0
KSE2 101923Z 15012G18KT 34/17 A3007 RMK A01 T03360171  RH  038%=      5-min Rain = 0
KSE2 101924Z 16009KT 34/17 A3007 RMK A01 T03380173  RH  037%=      5-min Rain = 0
KSE2 101925Z 18011G17KT 34/17 A3007 RMK A01 T03400173  RH  037%=      5-min Rain = 0
KSE2 101926Z 19009KT 34/17 A3007 RMK A01 T03420172  RH  036%=      5-min Rain = 0
KSE2 101927Z 17008KT 34/17 A3007 RMK A01 T03380171  RH  037%=      5-min Rain = 0
KSE2 101928Z 14014G19KT 34/17 A3007 RMK A01 T03390172  RH  037%=      5-min Rain = 0
KSE2 101929Z 14014KT 34/17 A3007 RMK A01 T03390169  RH  036%=      5-min Rain = 0
KSE2 101930Z 14015KT 34/17 A3007 RMK A01 T03360169  RH  037%=      5-min Rain = 0
KSE2 101931Z 15013G18KT 34/17 A3007 RMK A01 T03380169  RH  037%=      5-min Rain = 0
KSE2 101932Z 18010G16KT 34/17 A3007 RMK A01 T03410172  RH  037%=      5-min Rain = 0
KSE2 101933Z 17011KT 35/17 A3007 RMK A01 T03470172  RH  035%=      5-min Rain = 0
KSE2 101934Z 19010KT 35/17 A3007 RMK A01 T03470170  RH  035%=      5-min Rain = 0
KSE2 101935Z 19010G15KT 35/17 A3007 RMK A01 T03490168  RH  034%=      5-min Rain = 0
KSE2 101936Z 18010G15KT 35/17 A3007 RMK A01 T03490167  RH  034%=      5-min Rain = 0
KSE2 101937Z 17008KT 35/17 A3007 RMK A01 T03450167  RH  035%=      5-min Rain = 0
KSE2 101938Z 16013KT 35/17 A3007 RMK A01 T03470170  RH  035%=      5-min Rain = 0
KSE2 101939Z 17011KT 35/17 A3007 RMK A01 T03490168  RH  034%=      5-min Rain = 0
KSE2 101940Z 16010KT 34/17 A3007 RMK A01 T03430166  RH  035%=      5-min Rain = 0
KSE2 101941Z 16013G18KT 34/17 A3007 RMK A01 T03400167  RH  036%=      5-min Rain = 0
KSE2 101942Z 18011KT 34/17 A3007 RMK A01 T03370169  RH  037%=      5-min Rain = 0
KSE2 101943Z 18013KT 34/17 A3007 RMK A01 T03360171  RH  037%=      5-min Rain = 0
KSE2 101944Z 19012KT 33/17 A3007 RMK A01 T03340171  RH  038%=      5-min Rain = 0
KSE2 101945Z 17008KT 33/17 A3007 RMK A01 T03340172  RH  038%=      5-min Rain = 0
KSE2 101946Z 18012G19KT 34/17 A3007 RMK A01 T03380173  RH  037%=      5-min Rain = 0
KSE2 101947Z 18014KT 34/17 A3007 RMK A01 T03420172  RH  036%=      5-min Rain = 0
KSE2 101948Z 14012KT 34/17 A3007 RMK A01 T03440170  RH  036%=      5-min Rain = 0
KSE2 101949Z 15011KT 34/17 A3007 RMK A01 T03430168  RH  035%=      5-min Rain = 0
KSE2 101950Z 14008KT 34/17 A3007 RMK A01 T03410168  RH  036%=      5-min Rain = 0
KSE2 101951Z 13010G15KT 34/17 A3007 RMK A01 T03390167  RH  036%=      5-min Rain = 0
KSE2 101952Z 15012KT 34/17 A3006 RMK A01 T03380166  RH  036%=      5-min Rain = 0
KSE2 101953Z 15013G18KT 34/17 A3006 RMK A01 T03400166  RH  036%=      5-min Rain = 0
KSE2 101954Z 20009KT 34/17 A3006 RMK A01 T03430169  RH  035%=      5-min Rain = 0
KSE2 101955Z 17012KT 35/17 A3006 RMK A01 T03480170  RH  035%=      5-min Rain = 0
KSE2 101956Z 17014KT 35/17 A3006 RMK A01 T03480169  RH  034%=      5-min Rain = 0
KSE2 101957Z 18014G22KT 35/17 A3006 RMK A01 T03470166  RH  034%=      5-min Rain = 0
KSE2 101958Z 16014G19KT 35/17 A3006 RMK A01 T03460165  RH  034%=      5-min Rain = 0
KSE2 101959Z 15014KT 34/16 A3006 RMK A01 T03420164  RH  035%=      5-min Rain = 0
KSE2 102000Z 15016KT 34/17 A3006 RMK A01 T03420167  RH  035%=      5-min Rain = 0
KSE2 102001Z 15015G21KT 34/17 A3006 RMK A01 T03430168  RH  035%=      5-min Rain = 0
KSE2 102002Z 15017KT 34/17 A3006 RMK A01 T03420169  RH  036%=      5-min Rain = 0
KSE2 102003Z 14014KT 34/17 A3006 RMK A01 T03410168  RH  036%=      5-min Rain = 0
KSE2 102004Z 16011G16KT 34/17 A3006 RMK A01 T03400169  RH  036%=      5-min Rain = 0
KSE2 102005Z 17012KT 34/17 A3006 RMK A01 T03410168  RH  036%=      5-min Rain = 0
KSE2 102006Z 13010KT 34/17 A3005 RMK A01 T03410167  RH  035%=      5-min Rain = 0
KSE2 102007Z 14012KT 34/17 A3005 RMK A01 T03430165  RH  035%=      5-min Rain = 0
KSE2 102008Z 13016G23KT 34/17 A3005 RMK A01 T03440165  RH  035%=      5-min Rain = 0
KSE2 102009Z 14013G19KT 34/17 A3005 RMK A01 T03430165  RH  035%=      5-min Rain = 0
KSE2 102010Z 17011KT 35/17 A3005 RMK A01 T03470168  RH  035%=      5-min Rain = 0
KSE2 102011Z 18010G16KT 35/17 A3005 RMK A01 T03510170  RH  034%=      5-min Rain = 0
KSE2 102012Z 17013G18KT 36/17 A3005 RMK A01 T03550168  RH  033%=      5-min Rain = 0
KSE2 102013Z 19012KT 35/17 A3005 RMK A01 T03520165  RH  033%=      5-min Rain = 0
KSE2 102014Z 19010KT 35/17 A3005 RMK A01 T03500167  RH  034%=      5-min Rain = 0
KSE2 102015Z 18011G16KT 35/17 A3005 RMK A01 T03500165  RH  033%=      5-min Rain = 0
KSE2 102016Z 16010G15KT 35/17 A3005 RMK A01 T03490168  RH  034%=      5-min Rain = 0
KSE2 102017Z 14013G20KT 35/17 A3005 RMK A01 T03480169  RH  035%=      5-min Rain = 0
KSE2 102018Z 15013KT 35/17 A3005 RMK A01 T03450168  RH  035%=      5-min Rain = 0
KSE2 102019Z 17010KT 34/17 A3005 RMK A01 T03430169  RH  035%=      5-min Rain = 0
KSE2 102020Z 19010KT 35/17 A3005 RMK A01 T03460169  RH  035%=      5-min Rain = 0
KSE2 102021Z 19012G20KT 35/17 A3005 RMK A01 T03480169  RH  035%=      5-min Rain = 0
KSE2 102022Z 16008KT 35/17 A3005 RMK A01 T03500170  RH  034%=      5-min Rain = 0
KSE2 102023Z 18011KT 36/17 A3005 RMK A01 T03560172  RH  034%=      5-min Rain = 0
KSE2 102024Z 18016G22KT 36/17 A3005 RMK A01 T03580168  RH  033%=      5-min Rain = 0
KSE2 102025Z 17016G22KT 35/17 A3005 RMK A01 T03520165  RH  033%=      5-min Rain = 0
KSE2 102026Z 17012KT 35/16 A3005 RMK A01 T03470164  RH  034%=      5-min Rain = 0
KSE2 102027Z 17011KT 35/17 A3005 RMK A01 T03470167  RH  034%=      5-min Rain = 0
KSE2 102028Z 20012KT 35/17 A3005 RMK A01 T03470166  RH  034%=      5-min Rain = 0
KSE2 102029Z 22012G17KT 35/17 A3004 RMK A01 T03460166  RH  034%=      5-min Rain = 0
KSE2 102030Z 17009KT 35/17 A3004 RMK A01 T03460167  RH  035%=      5-min Rain = 0
KSE2 102031Z 16013G18KT 35/17 A3004 RMK A01 T03500170  RH  034%=      5-min Rain = 0
KSE2 102032Z 17011KT 35/17 A3004 RMK A01 T03510170  RH  034%=      5-min Rain = 0
KSE2 102033Z 19008KT 35/17 A3004 RMK A01 T03530171  RH  034%=      5-min Rain = 0
KSE2 102034Z 16008KT 36/17 A3005 RMK A01 T03550171  RH  034%=      5-min Rain = 0
KSE2 102035Z 15010KT 36/17 A3004 RMK A01 T03560170  RH  033%=      5-min Rain = 0
KSE2 102036Z 19015KT 35/17 A3004 RMK A01 T03540169  RH  033%=      5-min Rain = 0
KSE2 102037Z 16009G14KT 35/17 A3004 RMK A01 T03510168  RH  034%=      5-min Rain = 0
KSE2 102038Z 14014G20KT 35/17 A3004 RMK A01 T03530166  RH  033%=      5-min Rain = 0
KSE2 102039Z 14018G23KT 35/16 A3004 RMK A01 T03500161  RH  032%=      5-min Rain = 0
KSE2 102040Z 15013KT 35/16 A3004 RMK A01 T03470161  RH  033%=      5-min Rain = 0
KSE2 102041Z 16018G25KT 35/16 A3004 RMK A01 T03510163  RH  033%=      5-min Rain = 0
KSE2 102042Z 19016KT 35/16 A3004 RMK A01 T03500162  RH  033%=      5-min Rain = 0
KSE2 102043Z 18014KT 35/16 A3004 RMK A01 T03480160  RH  033%=      5-min Rain = 0
KSE2 102044Z 18011KT 35/16 A3004 RMK A01 T03470161  RH  033%=      5-min Rain = 0
KSE2 102045Z 19012KT 35/16 A3004 RMK A01 T03480163  RH  033%=      5-min Rain = 0
KSE2 102046Z 19010KT 35/17 A3004 RMK A01 T03510165  RH  033%=      5-min Rain = 0
KSE2 102047Z 19011KT 36/17 A3004 RMK A01 T03550167  RH  033%=      5-min Rain = 0
KSE2 102048Z 18008KT 36/17 A3004 RMK A01 T03560166  RH  033%=      5-min Rain = 0
KSE2 102049Z 21016G22KT 35/17 A3004 RMK A01 T03540166  RH  033%=      5-min Rain = 0
KSE2 102050Z 19018KT 35/16 A3004 RMK A01 T03510164  RH  033%=      5-min Rain = 0
KSE2 102051Z 19016G21KT 35/17 A3004 RMK A01 T03470165  RH  034%=      5-min Rain = 0
KSE2 102052Z 18011KT 35/17 A3004 RMK A01 T03480167  RH  034%=      5-min Rain = 0
KSE2 102053Z 18010KT 35/17 A3004 RMK A01 T03470167  RH  034%=      5-min Rain = 0
KSE2 102054Z 16007KT 34/17 A3004 RMK A01 T03430166  RH  035%=      5-min Rain = 0
KSE2 102055Z 14009G15KT 34/17 A3004 RMK A01 T03430167  RH  035%=      5-min Rain = 0
KSE2 102056Z 14011KT 34/17 A3004 RMK A01 T03420166  RH  035%=      5-min Rain = 0
KSE2 102057Z 16013G18KT 34/17 A3004 RMK A01 T03410167  RH  035%=      5-min Rain = 0
KSE2 102058Z 19011KT 34/17 A3004 RMK A01 T03430167  RH  035%=      5-min Rain = 0
KSE2 102059Z 19009G15KT 35/17 A3004 RMK A01 T03470169  RH  035%=      5-min Rain = 0
KSE2 102100Z 17009KT 35/17 A3004 RMK A01 T03520170  RH  034%=      5-min Rain = 0
KSE2 102101Z 16012G18KT 36/17 A3004 RMK A01 T03560171  RH  033%=      5-min Rain = 0
KSE2 102102Z 15017KT 36/17 A3004 RMK A01 T03580168  RH  032%=      5-min Rain = 0
KSE2 102103Z 15015KT 35/16 A3004 RMK A01 T03510163  RH  033%=      5-min Rain = 0
KSE2 102104Z 18010KT 35/16 A3004 RMK A01 T03470164  RH  034%=      5-min Rain = 0
KSE2 102105Z 17012KT 35/17 A3004 RMK A01 T03470166  RH  034%=      5-min Rain = 0
KSE2 102106Z 17009KT 35/17 A3004 RMK A01 T03480166  RH  034%=      5-min Rain = 0
KSE2 102107Z 18005KT 35/17 A3003 RMK A01 T03470167  RH  034%=      5-min Rain = 0
KSE2 102108Z 18009G14KT 35/17 A3003 RMK A01 T03510169  RH  034%=      5-min Rain = 0
KSE2 102109Z 17011G16KT 35/17 A3003 RMK A01 T03530168  RH  033%=      5-min Rain = 0
KSE2 102110Z 17009G14KT 35/17 A3003 RMK A01 T03540169  RH  033%=      5-min Rain = 0
KSE2 102111Z 19013G20KT 36/17 A3003 RMK A01 T03560170  RH  033%=      5-min Rain = 0
KSE2 102112Z 17011G18KT 36/17 A3003 RMK A01 T03570169  RH  033%=      5-min Rain = 0
KSE2 102113Z 18012KT 36/17 A3003 RMK A01 T03550168  RH  033%=      5-min Rain = 0
KSE2 102114Z 17010KT 35/17 A3003 RMK A01 T03500167  RH  034%=      5-min Rain = 0
KSE2 102115Z 16009KT 35/17 A3003 RMK A01 T03490168  RH  034%=      5-min Rain = 0
KSE2 102116Z 16012KT 35/17 A3003 RMK A01 T03510168  RH  034%=      5-min Rain = 0
KSE2 102117Z 17014KT 35/17 A3003 RMK A01 T03490166  RH  034%=      5-min Rain = 0
KSE2 102118Z 15012KT 35/17 A3003 RMK A01 T03480167  RH  034%=      5-min Rain = 0
KSE2 102119Z 18011G16KT 35/17 A3003 RMK A01 T03500167  RH  034%=      5-min Rain = 0
KSE2 102120Z 21015G21KT 35/16 A3003 RMK A01 T03500160  RH  032%=      5-min Rain = 0
KSE2 102121Z 20014KT 35/16 A3003 RMK A01 T03520159  RH  032%=      5-min Rain = 0
KSE2 102122Z 20010KT 35/16 A3003 RMK A01 T03510161  RH  032%=      5-min Rain = 0
KSE2 102123Z 21011KT 35/16 A3003 RMK A01 T03510162  RH  032%=      5-min Rain = 0
KSE2 102124Z 19012KT 35/16 A3003 RMK A01 T03530163  RH  032%=      5-min Rain = 0
KSE2 102125Z 15013G18KT 35/17 A3003 RMK A01 T03540165  RH  033%=      5-min Rain = 0
KSE2 102126Z 13014KT 35/17 A3003 RMK A01 T03530166  RH  033%=      5-min Rain = 0
KSE2 102127Z 14010KT 35/17 A3003 RMK A01 T03490165  RH  034%=      5-min Rain = 0
KSE2 102128Z 18009KT 35/17 A3003 RMK A01 T03490166  RH  034%=      5-min Rain = 0
KSE2 102129Z 15010KT 35/17 A3002 RMK A01 T03480166  RH  034%=      5-min Rain = 0
KSE2 102130Z 13013KT 35/17 A3002 RMK A01 T03480167  RH  034%=      5-min Rain = 0
KSE2 102131Z 12011KT 35/17 A3002 RMK A01 T03490167  RH  034%=      5-min Rain = 0
KSE2 102132Z 16009KT 35/17 A3003 RMK A01 T03500167  RH  034%=      5-min Rain = 0
KSE2 102133Z 17007KT 35/17 A3003 RMK A01 T03520166  RH  033%=      5-min Rain = 0
KSE2 102134Z 16010G17KT 35/17 A3002 RMK A01 T03520165  RH  033%=      5-min Rain = 0
KSE2 102135Z 14015KT 35/17 A3002 RMK A01 T03540165  RH  033%=      5-min Rain = 0
KSE2 102136Z 16012KT 35/16 A3003 RMK A01 T03530164  RH  033%=      5-min Rain = 0
KSE2 102137Z 17010KT 35/16 A3002 RMK A01 T03510164  RH  033%=      5-min Rain = 0
KSE2 102138Z 14009G17KT 35/16 A3002 RMK A01 T03500164  RH  033%=      5-min Rain = 0
KSE2 102139Z 13013KT 35/16 A3002 RMK A01 T03500163  RH  033%=      5-min Rain = 0
KSE2 102140Z 15011G16KT 35/16 A3002 RMK A01 T03480163  RH  033%=      5-min Rain = 0
KSE2 102141Z 17014G19KT 35/16 A3002 RMK A01 T03470163  RH  033%=      5-min Rain = 0
KSE2 102142Z 15014KT 34/16 A3002 RMK A01 T03430161  RH  034%=      5-min Rain = 0
KSE2 102143Z 14012KT 34/16 A3002 RMK A01 T03400161  RH  034%=      5-min Rain = 0
KSE2 102144Z 17011KT 34/16 A3002 RMK A01 T03420163  RH  034%=      5-min Rain = 0
KSE2 102145Z 18011G16KT 35/17 A3002 RMK A01 T03470165  RH  034%=      5-min Rain = 0
KSE2 102146Z 17010G16KT 35/16 A3002 RMK A01 T03500164  RH  033%=      5-min Rain = 0
KSE2 102147Z 17013G19KT 35/16 A3002 RMK A01 T03510163  RH  033%=      5-min Rain = 0
KSE2 102148Z 16009KT 35/16 A3002 RMK A01 T03510161  RH  032%=      5-min Rain = 0
KSE2 102149Z 16010KT 35/16 A3002 RMK A01 T03530162  RH  032%=      5-min Rain = 0
KSE2 102150Z 15010G15KT 36/16 A3002 RMK A01 T03560162  RH  032%=      5-min Rain = 0
KSE2 102151Z 16009KT 35/16 A3002 RMK A01 T03520160  RH  032%=      5-min Rain = 0
KSE2 102152Z 16011KT 35/16 A3002 RMK A01 T03510162  RH  032%=      5-min Rain = 0
KSE2 102153Z 15010KT 35/16 A3002 RMK A01 T03520162  RH  032%=      5-min Rain = 0
KSE2 102154Z 16013G21KT 35/16 A3002 RMK A01 T03510163  RH  033%=      5-min Rain = 0
KSE2 102155Z 17012KT 35/16 A3002 RMK A01 T03510163  RH  033%=      5-min Rain = 0
KSE2 102156Z 18011KT 35/16 A3002 RMK A01 T03500164  RH  033%=      5-min Rain = 0
KSE2 102157Z 16010KT 35/17 A3002 RMK A01 T03520165  RH  033%=      5-min Rain = 0
KSE2 102158Z 17012G19KT 36/17 A3002 RMK A01 T03550165  RH  033%=      5-min Rain = 0
KSE2 102159Z 18013G18KT 36/17 A3002 RMK A01 T03550165  RH  032%=      5-min Rain = 0
KSE2 102200Z 17011KT 35/17 A3002 RMK A01 T03540165  RH  032%=      5-min Rain = 0
KSE2 102201Z 17011G16KT 35/17 A3002 RMK A01 T03540165  RH  033%=      5-min Rain = 0
KSE2 102202Z 19008KT 36/17 A3002 RMK A01 T03560165  RH  032%=      5-min Rain = 0
KSE2 102203Z 18012KT 36/17 A3002 RMK A01 T03590165  RH  032%=      5-min Rain = 0
KSE2 102204Z 17010G15KT 36/16 A3001 RMK A01 T03580163  RH  031%=      5-min Rain = 0
KSE2 102205Z 18012G19KT 36/16 A3001 RMK A01 T03570163  RH  032%=      5-min Rain = 0
KSE2 102206Z 18011KT 36/16 A3001 RMK A01 T03560163  RH  032%=      5-min Rain = 0
KSE2 102207Z 17009G15KT 36/16 A3001 RMK A01 T03550162  RH  032%=      5-min Rain = 0
KSE2 102208Z 18008KT 36/16 A3001 RMK A01 T03560163  RH  032%=      5-min Rain = 0
KSE2 102209Z 16010G15KT 36/16 A3001 RMK A01 T03570160  RH  031%=      5-min Rain = 0
KSE2 102210Z 18012KT 36/16 A3001 RMK A01 T03550158  RH  031%=      5-min Rain = 0
KSE2 102211Z 17009KT 35/16 A3001 RMK A01 T03500160  RH  032%=      5-min Rain = 0
KSE2 102212Z 16011KT 35/16 A3001 RMK A01 T03490164  RH  033%=      5-min Rain = 0
KSE2 102213Z 16010G20KT 35/17 A3001 RMK A01 T03470165  RH  034%=      5-min Rain = 0
KSE2 102214Z 14017KT 35/17 A3001 RMK A01 T03480166  RH  034%=      5-min Rain = 0
KSE2 102215Z 14014G19KT 35/17 A3001 RMK A01 T03480165  RH  034%=      5-min Rain = 0
KSE2 102216Z 15013KT 35/17 A3001 RMK A01 T03490165  RH  034%=      5-min Rain = 0
KSE2 102217Z 16012KT 35/17 A3001 RMK A01 T03490165  RH  034%=      5-min Rain = 0
KSE2 102218Z 17009KT 35/17 A3001 RMK A01 T03480165  RH  034%=      5-min Rain = 0
KSE2 102219Z 17011KT 35/17 A3001 RMK A01 T03490166  RH  034%=      5-min Rain = 0
KSE2 102220Z 19010KT 35/17 A3001 RMK A01 T03510166  RH  033%=      5-min Rain = 0
KSE2 102221Z 20011KT 35/16 A3001 RMK A01 T03510163  RH  033%=      5-min Rain = 0
KSE2 102222Z 14010KT 35/16 A3001 RMK A01 T03490163  RH  033%=      5-min Rain = 0
KSE2 102223Z 13014KT 35/16 A3001 RMK A01 T03480164  RH  033%=      5-min Rain = 0
KSE2 102224Z 12013KT 34/16 A3001 RMK A01 T03420162  RH  034%=      5-min Rain = 0
KSE2 102225Z 13011G16KT 34/16 A3001 RMK A01 T03380163  RH  035%=      5-min Rain = 0
KSE2 102226Z 15014KT 34/16 A3001 RMK A01 T03370163  RH  035%=      5-min Rain = 0
KSE2 102227Z 16014G19KT 34/17 A3001 RMK A01 T03390165  RH  035%=      5-min Rain = 0
KSE2 102228Z 16014KT 34/17 A3001 RMK A01 T03420165  RH  035%=      5-min Rain = 0
KSE2 102229Z 13015KT 34/17 A3001 RMK A01 T03430166  RH  035%=      5-min Rain = 0
KSE2 102230Z 13012KT 34/17 A3001 RMK A01 T03440166  RH  035%=      5-min Rain = 0
KSE2 102231Z 12015KT 35/17 A3001 RMK A01 T03450166  RH  034%=      5-min Rain = 0
KSE2 102232Z 13013KT 34/17 A3001 RMK A01 T03440165  RH  034%=      5-min Rain = 0
KSE2 102233Z 13011G17KT 34/17 A3001 RMK A01 T03430165  RH  035%=      5-min Rain = 0
KSE2 102234Z 12012KT 34/17 A3001 RMK A01 T03430165  RH  035%=      5-min Rain = 0
KSE2 102235Z 14010KT 34/17 A3001 RMK A01 T03410165  RH  035%=      5-min Rain = 0
KSE2 102236Z 12013KT 34/17 A3001 RMK A01 T03430166  RH  035%=      5-min Rain = 0
KSE2 102237Z 14012G17KT 34/17 A3001 RMK A01 T03440165  RH  034%=      5-min Rain = 0
KSE2 102238Z 16013KT 35/17 A3001 RMK A01 T03450165  RH  034%=      5-min Rain = 0
KSE2 102239Z 13013G21KT 35/17 A3001 RMK A01 T03470166  RH  034%=      5-min Rain = 0
KSE2 102240Z 14015KT 35/17 A3001 RMK A01 T03470165  RH  034%=      5-min Rain = 0
KSE2 102241Z 14013KT 35/16 A3001 RMK A01 T03450164  RH  034%=      5-min Rain = 0
KSE2 102242Z 15012KT 34/16 A3001 RMK A01 T03440164  RH  034%=      5-min Rain = 0
KSE2 102243Z 12011KT 35/17 A3001 RMK A01 T03450165  RH  034%=      5-min Rain = 0
KSE2 102244Z 12012KT 35/16 A3001 RMK A01 T03460163  RH  034%=      5-min Rain = 0
KSE2 102245Z 16013G19KT 35/16 A3001 RMK A01 T03470164  RH  034%=      5-min Rain = 0
KSE2 102246Z 15010G16KT 35/16 A3001 RMK A01 T03470164  RH  034%=      5-min Rain = 0
KSE2 102247Z 16010G15KT 35/16 A3001 RMK A01 T03460163  RH  034%=      5-min Rain = 0
KSE2 102248Z 17013KT 35/16 A3001 RMK A01 T03460164  RH  034%=      5-min Rain = 0
KSE2 102249Z 17009G15KT 35/16 A3001 RMK A01 T03460164  RH  034%=      5-min Rain = 0
KSE2 102250Z 17013KT 35/17 A3001 RMK A01 T03480166  RH  034%=      5-min Rain = 0
KSE2 102251Z 17010G15KT 35/17 A3001 RMK A01 T03500166  RH  034%=      5-min Rain = 0
KSE2 102252Z 15009KT 35/17 A3001 RMK A01 T03500166  RH  034%=      5-min Rain = 0
KSE2 102253Z 16013G20KT 35/17 A3001 RMK A01 T03520165  RH  033%=      5-min Rain = 0
KSE2 102254Z 16012G17KT 35/16 A30 RMK A01 T03500164  RH  033%=      5-min Rain = 0
KSE2 102255Z 15012KT 35/16 A30 RMK A01 T03490164  RH  033%=      5-min Rain = 0
KSE2 102256Z 16012G19KT 35/17 A3001 RMK A01 T03490165  RH  033%=      5-min Rain = 0
KSE2 102257Z 17014G20KT 35/16 A3001 RMK A01 T03490164  RH  033%=      5-min Rain = 0
KSE2 102258Z 16013G18KT 35/16 A3001 RMK A01 T03470163  RH  033%=      5-min Rain = 0
KSE2 102259Z 16013KT 35/16 A3001 RMK A01 T03460162  RH  034%=      5-min Rain = 0
KSE2 102300Z 17010KT 34/16 A3001 RMK A01 T03440163  RH  034%=      5-min Rain = 0
KSE2 102301Z 18010KT 34/16 A3001 RMK A01 T03440163  RH  034%=      5-min Rain = 0
KSE2 102302Z 16006KT 34/16 A3001 RMK A01 T03440164  RH  034%=      5-min Rain = 0
KSE2 102303Z 16008KT 35/16 A3001 RMK A01 T03470164  RH  034%=      5-min Rain = 0
KSE2 102304Z 16010KT 35/16 A3001 RMK A01 T03470164  RH  034%=      5-min Rain = 0
KSE2 102305Z 16011KT 35/16 A3001 RMK A01 T03460164  RH  034%=      5-min Rain = 0
KSE2 102306Z 15013KT 35/16 A3001 RMK A01 T03460163  RH  034%=      5-min Rain = 0
KSE2 102307Z 15013G18KT 35/16 A3001 RMK A01 T03460163  RH  034%=      5-min Rain = 0
KSE2 102308Z 15013G19KT 35/16 A3001 RMK A01 T03460163  RH  034%=      5-min Rain = 0
KSE2 102309Z 16013KT 35/16 A3001 RMK A01 T03450163  RH  034%=      5-min Rain = 0
KSE2 102310Z 14011G16KT 35/16 A3001 RMK A01 T03450161  RH  034%=      5-min Rain = 0
KSE2 102311Z 15011KT 34/16 A3001 RMK A01 T03430161  RH  034%=      5-min Rain = 0
KSE2 102312Z 13009KT 35/16 A3001 RMK A01 T03450162  RH  034%=      5-min Rain = 0
KSE2 102313Z 14009KT 35/16 A3001 RMK A01 T03450161  RH  033%=      5-min Rain = 0
KSE2 102314Z 15006KT 35/16 A3001 RMK A01 T03450162  RH  034%=      5-min Rain = 0
KSE2 102315Z 16009KT 35/16 A3001 RMK A01 T03460162  RH  033%=      5-min Rain = 0
KSE2 102316Z 15008KT 35/16 A30 RMK A01 T03470162  RH  033%=      5-min Rain = 0
KSE2 102317Z 15009KT 35/16 A30 RMK A01 T03480163  RH  033%=      5-min Rain = 0
KSE2 102318Z 14013KT 35/16 A30 RMK A01 T03490161  RH  033%=      5-min Rain = 0
KSE2 102319Z 15009KT 35/16 A3001 RMK A01 T03460160  RH  033%=      5-min Rain = 0
KSE2 102320Z 16010KT 35/16 A3001 RMK A01 T03460161  RH  033%=      5-min Rain = 0
KSE2 102321Z 17013KT 35/16 A3001 RMK A01 T03460161  RH  033%=      5-min Rain = 0
KSE2 102322Z 17011G19KT 35/16 A3001 RMK A01 T03460161  RH  033%=      5-min Rain = 0
KSE2 102323Z 16016KT 35/16 A3001 RMK A01 T03450161  RH  033%=      5-min Rain = 0
KSE2 102324Z 17013KT 34/16 A3001 RMK A01 T03430161  RH  034%=      5-min Rain = 0
KSE2 102325Z 18011G16KT 34/16 A3001 RMK A01 T03420161  RH  034%=      5-min Rain = 0
KSE2 102326Z 19013G18KT 34/16 A3001 RMK A01 T03420161  RH  034%=      5-min Rain = 0
KSE2 102327Z 20013G19KT 34/16 A3001 RMK A01 T03410161  RH  034%=      5-min Rain = 0
KSE2 102328Z 19013KT 34/16 A3001 RMK A01 T03390160  RH  034%=      5-min Rain = 0
KSE2 102329Z 16008G16KT 34/16 A3001 RMK A01 T03390161  RH  034%=      5-min Rain = 0
KSE2 102330Z 15010G16KT 34/16 A3001 RMK A01 T03410160  RH  034%=      5-min Rain = 0
KSE2 102331Z 15011KT 34/16 A3001 RMK A01 T03430160  RH  034%=      5-min Rain = 0
KSE2 102332Z 16012KT 34/16 A3001 RMK A01 T03420160  RH  034%=      5-min Rain = 0
KSE2 102333Z 17010G16KT 34/16 A3001 RMK A01 T03410160  RH  034%=      5-min Rain = 0
KSE2 102334Z 17012G21KT 34/16 A3001 RMK A01 T03430162  RH  034%=      5-min Rain = 0
KSE2 102335Z 16015KT 34/16 A3001 RMK A01 T03430163  RH  034%=      5-min Rain = 0
KSE2 102336Z 15013KT 34/16 A3001 RMK A01 T03390162  RH  035%=      5-min Rain = 0
KSE2 102337Z 18012KT 34/16 A3001 RMK A01 T03380162  RH  035%=      5-min Rain = 0
KSE2 102338Z 19011KT 34/16 A3001 RMK A01 T03380162  RH  035%=      5-min Rain = 0
KSE2 102339Z 15008KT 34/16 A3001 RMK A01 T03380163  RH  035%=      5-min Rain = 0
KSE2 102340Z 14013KT 34/16 A3001 RMK A01 T03390163  RH  035%=      5-min Rain = 0
KSE2 102341Z 13013KT 34/16 A30 RMK A01 T03390163  RH  035%=      5-min Rain = 0
KSE2 102342Z 14013KT 34/16 A30 RMK A01 T03390163  RH  035%=      5-min Rain = 0
KSE2 102343Z 15011KT 34/16 A30 RMK A01 T03400163  RH  035%=      5-min Rain = 0
KSE2 102344Z 15010G16KT 34/16 A30 RMK A01 T03400163  RH  035%=      5-min Rain = 0
KSE2 102345Z 13009G14KT 34/16 A30 RMK A01 T03400163  RH  035%=      5-min Rain = 0
KSE2 102346Z 12012G17KT 34/16 A30 RMK A01 T03410162  RH  034%=      5-min Rain = 0
KSE2 102347Z 13015KT 34/16 A30 RMK A01 T03410162  RH  034%=      5-min Rain = 0
KSE2 102348Z 13013KT 34/16 A30 RMK A01 T03390160  RH  034%=      5-min Rain = 0
KSE2 102349Z 13013KT 34/16 A30 RMK A01 T03380160  RH  035%=      5-min Rain = 0
KSE2 102350Z 14012G17KT 34/16 A30 RMK A01 T03370161  RH  035%=      5-min Rain = 0
KSE2 102351Z 18008G14KT 34/16 A30 RMK A01 T03380162  RH  035%=      5-min Rain = 0
KSE2 102352Z 17011G17KT 34/16 A30 RMK A01 T03400163  RH  035%=      5-min Rain = 0
KSE2 102353Z 16009KT 34/16 A30 RMK A01 T03400162  RH  034%=      5-min Rain = 0
KSE2 102354Z 15010KT 34/16 A30 RMK A01 T03400161  RH  034%=      5-min Rain = 0
KSE2 102355Z 16009G14KT 34/16 A30 RMK A01 T03400161  RH  034%=      5-min Rain = 0
KSE2 102356Z 15011KT 34/16 A30 RMK A01 T03400161  RH  034%=      5-min Rain = 0
KSE2 102357Z 15010KT 34/16 A30 RMK A01 T03370160  RH  035%=      5-min Rain = 0
KSE2 102358Z 16014KT 34/16 A30 RMK A01 T03370160  RH  035%=      5-min Rain = 0
KSE2 102359Z 15011KT 34/16 A30 RMK A01 T03360160  RH  035%=      5-min Rain = 0
KSE2 110000Z 12009G14KT 34/16 A30 RMK A01 T03350161  RH  035%=      5-min Rain = 0
KSE2 110001Z 13012G18KT 34/16 A30 RMK A01 T03360161  RH  035%=      5-min Rain = 0
KSE2 110002Z 15011KT 34/16 A30 RMK A01 T03360161  RH  035%=      5-min Rain = 0
KSE2 110003Z 15013KT 34/16 A30 RMK A01 T03370161  RH  035%=      5-min Rain = 0
KSE2 110004Z 13012KT 34/16 A30 RMK A01 T03360161  RH  035%=      5-min Rain = 0
KSE2 110005Z 14011G16KT 34/16 A30 RMK A01 T03360161  RH  035%=      5-min Rain = 0
KSE2 110006Z 15013G18KT 34/16 A30 RMK A01 T03360161  RH  035%=      5-min Rain = 0
KSE2 110007Z 16012KT 34/16 A30 RMK A01 T03360162  RH  035%=      5-min Rain = 0
KSE2 110008Z 16011KT 34/16 A30 RMK A01 T03360162  RH  035%=      5-min Rain = 0
KSE2 110009Z 14013KT 34/16 A30 RMK A01 T03360162  RH  035%=      5-min Rain = 0
KSE2 110010Z 15014KT 33/16 A30 RMK A01 T03340161  RH  036%=      5-min Rain = 0
KSE2 110011Z 14013KT 33/16 A30 RMK A01 T03340161  RH  036%=      5-min Rain = 0
KSE2 110012Z 15012KT 34/16 A30 RMK A01 T03350162  RH  036%=      5-min Rain = 0
KSE2 110013Z 15013KT 34/16 A30 RMK A01 T03350161  RH  035%=      5-min Rain = 0
KSE2 110014Z 15014G19KT 33/16 A30 RMK A01 T03340161  RH  036%=      5-min Rain = 0
KSE2 110015Z 14010KT 33/16 A30 RMK A01 T03330161  RH  036%=      5-min Rain = 0
KSE2 110016Z 14012KT 33/16 A30 RMK A01 T03330161  RH  036%=      5-min Rain = 0
KSE2 110017Z 14012KT 33/16 A30 RMK A01 T03330161  RH  036%=      5-min Rain = 0
KSE2 110018Z 14014KT 33/16 A2999 RMK A01 T03330161  RH  036%=      5-min Rain = 0
KSE2 110019Z 14016KT 33/16 A2999 RMK A01 T03330161  RH  036%=      5-min Rain = 0
KSE2 110020Z 14012G18KT 33/16 A2999 RMK A01 T03330161  RH  036%=      5-min Rain = 0
KSE2 110021Z 14011KT 33/16 A2999 RMK A01 T03320161  RH  036%=      5-min Rain = 0
KSE2 110022Z 14011KT 33/16 A2999 RMK A01 T03320161  RH  036%=      5-min Rain = 0
KSE2 110023Z 14013KT 33/16 A2999 RMK A01 T03320161  RH  036%=      5-min Rain = 0
KSE2 110024Z 15014KT 33/16 A2999 RMK A01 T03320161  RH  036%=      5-min Rain = 0
KSE2 110025Z 15009G15KT 33/16 A30 RMK A01 T03310161  RH  036%=      5-min Rain = 0
KSE2 110026Z 17012G18KT 33/16 A30 RMK A01 T03310161  RH  036%=      5-min Rain = 0
KSE2 110027Z 17012KT 33/16 A30 RMK A01 T03310161  RH  036%=      5-min Rain = 0
KSE2 110028Z 16013KT 33/16 A2999 RMK A01 T03310161  RH  036%=      5-min Rain = 0
KSE2 110029Z 15010KT 33/16 A2999 RMK A01 T03300160  RH  036%=      5-min Rain = 0
KSE2 110030Z 15010KT 33/16 A2999 RMK A01 T03300160  RH  036%=      5-min Rain = 0
KSE2 110031Z 17011G16KT 33/16 A2999 RMK A01 T03300160  RH  036%=      5-min Rain = 0
KSE2 110032Z 16011KT 33/16 A2999 RMK A01 T03300160  RH  036%=      5-min Rain = 0
KSE2 110033Z 15009KT 33/16 A30 RMK A01 T03290160  RH  036%=      5-min Rain = 0
KSE2 110034Z 15012KT 33/16 A30 RMK A01 T03290160  RH  036%=      5-min Rain = 0
KSE2 110035Z 15011KT 33/16 A30 RMK A01 T03300161  RH  036%=      5-min Rain = 0
KSE2 110036Z 14013KT 33/16 A2999 RMK A01 T03290161  RH  036%=      5-min Rain = 0
KSE2 110037Z 14008KT 33/16 A2999 RMK A01 T03290161  RH  037%=      5-min Rain = 0
KSE2 110038Z 15009G14KT 33/16 A2999 RMK A01 T03280161  RH  037%=      5-min Rain = 0
KSE2 110039Z 15014KT 33/16 A2999 RMK A01 T03280161  RH  037%=      5-min Rain = 0
KSE2 110040Z 15015KT 33/16 A2999 RMK A01 T03280161  RH  037%=      5-min Rain = 0
KSE2 110041Z 15013KT 33/16 A2999 RMK A01 T03270161  RH  037%=      5-min Rain = 0
KSE2 110042Z 15009KT 33/16 A2999 RMK A01 T03270161  RH  037%=      5-min Rain = 0
KSE2 110043Z 15010G15KT 33/16 A2999 RMK A01 T03270162  RH  037%=      5-min Rain = 0
KSE2 110044Z 16013KT 33/16 A2999 RMK A01 T03270162  RH  037%=      5-min Rain = 0
KSE2 110045Z 14013G18KT 33/16 A2999 RMK A01 T03270162  RH  037%=      5-min Rain = 0
KSE2 110046Z 14013G18KT 33/16 A2999 RMK A01 T03260161  RH  037%=      5-min Rain = 0
KSE2 110047Z 14012KT 33/16 A2999 RMK A01 T03260161  RH  037%=      5-min Rain = 0
KSE2 110048Z 15012G17KT 33/16 A2999 RMK A01 T03250161  RH  037%=      5-min Rain = 0
KSE2 110049Z 15010KT 33/16 A2999 RMK A01 T03250161  RH  037%=      5-min Rain = 0
KSE2 110050Z 14009KT 33/16 A2999 RMK A01 T03250161  RH  037%=      5-min Rain = 0
KSE2 110051Z 14011KT 33/16 A2999 RMK A01 T03250161  RH  037%=      5-min Rain = 0
KSE2 110052Z 14011G16KT 33/16 A2999 RMK A01 T03250161  RH  037%=      5-min Rain = 0
KSE2 110053Z 15013KT 32/16 A2999 RMK A01 T03240160  RH  037%=      5-min Rain = 0
KSE2 110054Z 15014KT 32/16 A2999 RMK A01 T03240159  RH  037%=      5-min Rain = 0
KSE2 110055Z 15010KT 32/16 A2999 RMK A01 T03240159  RH  037%=      5-min Rain = 0
KSE2 110056Z 16011KT 32/16 A2999 RMK A01 T03240159  RH  037%=      5-min Rain = 0
KSE2 110057Z 15010KT 32/16 A2999 RMK A01 T03240159  RH  037%=      5-min Rain = 0
KSE2 110058Z 15009G15KT 32/16 A2999 RMK A01 T03230159  RH  037%=      5-min Rain = 0
KSE2 110059Z 15011G16KT 32/16 A2999 RMK A01 T03230159  RH  037%=      5-min Rain = 0
KSE2 110100Z 16012G17KT 32/16 A2999 RMK A01 T03230158  RH  037%=      5-min Rain = 0
KSE2 110101Z 15009KT 32/16 A2999 RMK A01 T03230158  RH  037%=      5-min Rain = 0
KSE2 110102Z 16012KT 32/16 A2999 RMK A01 T03220158  RH  037%=      5-min Rain = 0
KSE2 110103Z 16012KT 32/16 A2999 RMK A01 T03220158  RH  037%=      5-min Rain = 0
KSE2 110104Z 14012KT 32/16 A2999 RMK A01 T03220158  RH  037%=      5-min Rain = 0
KSE2 110105Z 15012KT 32/16 A2999 RMK A01 T03220159  RH  038%=      5-min Rain = 0
KSE2 110106Z 16011KT 32/16 A2999 RMK A01 T03210159  RH  038%=      5-min Rain = 0
KSE2 110107Z 15009G14KT 32/16 A2999 RMK A01 T03210159  RH  038%=      5-min Rain = 0
KSE2 110108Z 15011KT 32/16 A2999 RMK A01 T03210159  RH  038%=      5-min Rain = 0
KSE2 110109Z 15013KT 32/16 A2999 RMK A01 T03200160  RH  038%=      5-min Rain = 0
KSE2 110110Z 15014KT 32/16 A2999 RMK A01 T03200160  RH  038%=      5-min Rain = 0
KSE2 110111Z 15010G15KT 32/16 A2999 RMK A01 T03200160  RH  038%=      5-min Rain = 0
KSE2 110112Z 15009KT 32/16 A2999 RMK A01 T03200161  RH  038%=      5-min Rain = 0
KSE2 110113Z 14012KT 32/16 A2999 RMK A01 T03190160  RH  038%=      5-min Rain = 0
KSE2 110114Z 15011KT 32/16 A2999 RMK A01 T03190160  RH  038%=      5-min Rain = 0
KSE2 110115Z 16009G14KT 32/16 A2999 RMK A01 T03190160  RH  039%=      5-min Rain = 0
KSE2 110116Z 17010KT 32/16 A2999 RMK A01 T03180160  RH  039%=      5-min Rain = 0
KSE2 110117Z 16009KT 32/16 A2999 RMK A01 T03180161  RH  039%=      5-min Rain = 0
KSE2 110118Z 17007KT 32/16 A2999 RMK A01 T03170161  RH  039%=      5-min Rain = 0
KSE2 110119Z 16010KT 32/16 A2999 RMK A01 T03170161  RH  039%=      5-min Rain = 0
KSE2 110120Z 16009KT 32/16 A2999 RMK A01 T03170161  RH  039%=      5-min Rain = 0
KSE2 110121Z 16009KT 32/16 A2999 RMK A01 T03160161  RH  039%=      5-min Rain = 0
KSE2 110122Z 17010KT 32/16 A2999 RMK A01 T03160161  RH  039%=      5-min Rain = 0
KSE2 110123Z 16010KT 32/16 A2999 RMK A01 T03160161  RH  039%=      5-min Rain = 0
KSE2 110124Z 16010KT 32/16 A2999 RMK A01 T03160161  RH  039%=      5-min Rain = 0
KSE2 110125Z 17009KT 32/16 A2999 RMK A01 T03150161  RH  039%=      5-min Rain = 0
KSE2 110126Z 15010KT 32/16 A2999 RMK A01 T03150161  RH  039%=      5-min Rain = 0
KSE2 110127Z 16008KT 32/16 A2999 RMK A01 T03150161  RH  040%=      5-min Rain = 0
KSE2 110128Z 16009KT 31/16 A2999 RMK A01 T03140161  RH  040%=      5-min Rain = 0
KSE2 110129Z 15009KT 31/16 A2999 RMK A01 T03140161  RH  040%=      5-min Rain = 0
KSE2 110130Z 15010KT 31/16 A2999 RMK A01 T03140161  RH  040%=      5-min Rain = 0
KSE2 110131Z 15009KT 31/16 A2999 RMK A01 T03140162  RH  040%=      5-min Rain = 0
KSE2 110132Z 16010KT 31/16 A2999 RMK A01 T03140162  RH  040%=      5-min Rain = 0
KSE2 110133Z 17010KT 31/16 A2999 RMK A01 T03140162  RH  040%=      5-min Rain = 0
KSE2 110134Z 17010KT 31/16 A2999 RMK A01 T03140163  RH  040%=      5-min Rain = 0
KSE2 110135Z 16008KT 31/16 A2999 RMK A01 T03130162  RH  040%=      5-min Rain = 0
KSE2 110136Z 16009G14KT 31/16 A2999 RMK A01 T03130163  RH  040%=      5-min Rain = 0
KSE2 110137Z 16011KT 31/16 A2999 RMK A01 T03130163  RH  041%=      5-min Rain = 0
KSE2 110138Z 16010KT 31/16 A2999 RMK A01 T03130163  RH  041%=      5-min Rain = 0
KSE2 110139Z 15010KT 31/16 A2999 RMK A01 T03120163  RH  041%=      5-min Rain = 0
KSE2 110140Z 15009KT 31/16 A2999 RMK A01 T03120163  RH  041%=      5-min Rain = 0
KSE2 110141Z 16009KT 31/16 A2999 RMK A01 T03120163  RH  041%=      5-min Rain = 0
KSE2 110142Z 15008KT 31/16 A2999 RMK A01 T03120163  RH  041%=      5-min Rain = 0
KSE2 110143Z 15006KT 31/16 A2999 RMK A01 T03120163  RH  041%=      5-min Rain = 0
KSE2 110144Z 15010G16KT 31/16 A2999 RMK A01 T03100163  RH  041%=      5-min Rain = 0
KSE2 110145Z 15009KT 31/16 A2999 RMK A01 T03110163  RH  041%=      5-min Rain = 0
KSE2 110146Z 15012KT 31/16 A2999 RMK A01 T03110163  RH  041%=      5-min Rain = 0
KSE2 110147Z 16010KT 31/16 A2999 RMK A01 T03110163  RH  041%=      5-min Rain = 0
KSE2 110148Z 16011KT 31/16 A2999 RMK A01 T03100163  RH  041%=      5-min Rain = 0
KSE2 110149Z 15009KT 31/16 A2999 RMK A01 T03100163  RH  041%=      5-min Rain = 0
KSE2 110150Z 16010KT 31/16 A2999 RMK A01 T03100163  RH  041%=      5-min Rain = 0
KSE2 110151Z 15010KT 31/16 A2999 RMK A01 T03100163  RH  041%=      5-min Rain = 0
KSE2 110152Z 16008KT 31/16 A2999 RMK A01 T03100163  RH  041%=      5-min Rain = 0
KSE2 110153Z 16012KT 31/16 A2999 RMK A01 T03090163  RH  041%=      5-min Rain = 0
KSE2 110154Z 15009KT 31/16 A2999 RMK A01 T03090163  RH  041%=      5-min Rain = 0
KSE2 110155Z 15008KT 31/16 A2999 RMK A01 T03090163  RH  041%=      5-min Rain = 0
KSE2 110156Z 16008KT 31/16 A2999 RMK A01 T03080163  RH  041%=      5-min Rain = 0
KSE2 110157Z 15009KT 31/16 A2999 RMK A01 T03080163  RH  042%=      5-min Rain = 0
KSE2 110158Z 15009KT 31/16 A2999 RMK A01 T03080163  RH  042%=      5-min Rain = 0
KSE2 110159Z 16007KT 31/16 A2999 RMK A01 T03080163  RH  042%=      5-min Rain = 0
KSE2 110200Z 16010KT 31/16 A2999 RMK A01 T03070163  RH  042%=      5-min Rain = 0
KSE2 110201Z 16008KT 31/16 A2999 RMK A01 T03070163  RH  042%=      5-min Rain = 0
KSE2 110202Z 16010KT 31/16 A2999 RMK A01 T03070163  RH  042%=      5-min Rain = 0
KSE2 110203Z 15010KT 31/16 A2999 RMK A01 T03070163  RH  042%=      5-min Rain = 0
KSE2 110204Z 16008KT 31/16 A2999 RMK A01 T03070163  RH  042%=      5-min Rain = 0
KSE2 110205Z 16009KT 31/16 A2999 RMK A01 T03070163  RH  042%=      5-min Rain = 0
KSE2 110206Z 15008KT 31/16 A2999 RMK A01 T03070163  RH  042%=      5-min Rain = 0
KSE2 110207Z 16007KT 31/16 A2999 RMK A01 T03060163  RH  042%=      5-min Rain = 0
KSE2 110208Z 15007KT 31/16 A2999 RMK A01 T03060163  RH  042%=      5-min Rain = 0
KSE2 110209Z 15007KT 31/16 A2999 RMK A01 T03050163  RH  042%=      5-min Rain = 0
KSE2 110210Z 15009KT 31/16 A2999 RMK A01 T03050163  RH  042%=      5-min Rain = 0
KSE2 110211Z 15010KT 31/16 A2999 RMK A01 T03050163  RH  042%=      5-min Rain = 0
KSE2 110212Z 15010KT 31/16 A2999 RMK A01 T03050163  RH  043%=      5-min Rain = 0
KSE2 110213Z 15010KT 31/16 A2999 RMK A01 T03050163  RH  042%=      5-min Rain = 0
KSE2 110214Z 15011KT 31/16 A2999 RMK A01 T03050163  RH  042%=      5-min Rain = 0
KSE2 110215Z 15008KT 31/16 A2999 RMK A01 T03060164  RH  042%=      5-min Rain = 0
KSE2 110216Z 15008KT 31/16 A2999 RMK A01 T03050163  RH  042%=      5-min Rain = 0
KSE2 110217Z 15008KT 31/16 A2999 RMK A01 T03050163  RH  043%=      5-min Rain = 0
KSE2 110218Z 15010KT 30/16 A2999 RMK A01 T03040163  RH  043%=      5-min Rain = 0
KSE2 110219Z 16009KT 30/16 A2999 RMK A01 T03040163  RH  043%=      5-min Rain = 0
KSE2 110220Z 16008KT 30/16 A2999 RMK A01 T03040164  RH  043%=      5-min Rain = 0
KSE2 110221Z 15008KT 30/16 A2999 RMK A01 T03030164  RH  043%=      5-min Rain = 0
KSE2 110222Z 15007KT 30/16 A2999 RMK A01 T03030163  RH  043%=      5-min Rain = 0
KSE2 110223Z 15008KT 30/16 A2999 RMK A01 T03030163  RH  043%=      5-min Rain = 0
KSE2 110224Z 15007KT 30/16 A2999 RMK A01 T03030164  RH  043%=      5-min Rain = 0
KSE2 110225Z 14008KT 30/16 A2999 RMK A01 T03020163  RH  043%=      5-min Rain = 0
KSE2 110226Z 14007KT 30/16 A2999 RMK A01 T03010163  RH  043%=      5-min Rain = 0
KSE2 110227Z 14007KT 30/16 A2999 RMK A01 T03010163  RH  044%=      5-min Rain = 0
KSE2 110228Z 14007KT 30/16 A2999 RMK A01 T03000163  RH  044%=      5-min Rain = 0
KSE2 110229Z 14006KT 30/16 A2999 RMK A01 T03000163  RH  044%=      5-min Rain = 0
KSE2 110230Z 14006KT 30/16 A30 RMK A01 T02990163  RH  044%=      5-min Rain = 0
KSE2 110231Z 14007KT 30/16 A30 RMK A01 T02980163  RH  044%=      5-min Rain = 0
KSE2 110232Z 14006KT 30/16 A30 RMK A01 T02980163  RH  044%=      5-min Rain = 0
KSE2 110233Z 14006KT 30/16 A30 RMK A01 T02980163  RH  044%=      5-min Rain = 0
KSE2 110234Z 14006KT 30/16 A30 RMK A01 T02980163  RH  044%=      5-min Rain = 0
KSE2 110235Z 14006KT 30/16 A30 RMK A01 T02970163  RH  044%=      5-min Rain = 0
KSE2 110236Z 14006KT 30/16 A30 RMK A01 T02970163  RH  044%=      5-min Rain = 0
KSE2 110237Z 14006KT 30/16 A30 RMK A01 T02960163  RH  045%=      5-min Rain = 0
KSE2 110238Z 14006KT 30/16 A30 RMK A01 T02960163  RH  045%=      5-min Rain = 0
KSE2 110239Z 14006KT 30/16 A30 RMK A01 T02950162  RH  045%=      5-min Rain = 0
KSE2 110240Z 14005KT 30/16 A30 RMK A01 T02950163  RH  045%=      5-min Rain = 0
KSE2 110241Z 14005KT 29/16 A30 RMK A01 T02940162  RH  045%=      5-min Rain = 0
KSE2 110242Z 14004KT 29/16 A30 RMK A01 T02930162  RH  045%=      5-min Rain = 0
KSE2 110243Z 14005KT 29/16 A30 RMK A01 T02920162  RH  045%=      5-min Rain = 0
KSE2 110244Z 13005KT 29/16 A30 RMK A01 T02920162  RH  045%=      5-min Rain = 0
KSE2 110245Z 14006KT 29/16 A30 RMK A01 T02920162  RH  046%=      5-min Rain = 0
KSE2 110246Z 14005KT 29/16 A30 RMK A01 T02910162  RH  046%=      5-min Rain = 0
KSE2 110247Z 13005KT 29/16 A30 RMK A01 T02910162  RH  046%=      5-min Rain = 0
KSE2 110248Z 14006KT 29/16 A30 RMK A01 T02900162  RH  046%=      5-min Rain = 0
KSE2 110249Z 14006KT 29/16 A30 RMK A01 T02900162  RH  046%=      5-min Rain = 0
KSE2 110250Z 15006KT 29/16 A30 RMK A01 T02890162  RH  046%=      5-min Rain = 0
KSE2 110251Z 14006KT 29/16 A30 RMK A01 T02890163  RH  046%=      5-min Rain = 0
KSE2 110252Z 14006KT 29/16 A30 RMK A01 T02890162  RH  046%=      5-min Rain = 0
KSE2 110253Z 14005KT 29/16 A30 RMK A01 T02890163  RH  046%=      5-min Rain = 0
KSE2 110254Z 14005KT 29/16 A30 RMK A01 T02900163  RH  046%=      5-min Rain = 0
KSE2 110255Z 14005KT 29/16 A30 RMK A01 T02890163  RH  046%=      5-min Rain = 0
KSE2 110256Z 14006KT 29/16 A3001 RMK A01 T02890163  RH  046%=      5-min Rain = 0
KSE2 110257Z 14006KT 29/16 A3001 RMK A01 T02880163  RH  047%=      5-min Rain = 0
KSE2 110258Z 15006KT 29/16 A3001 RMK A01 T02880163  RH  047%=      5-min Rain = 0
KSE2 110259Z 15006KT 29/16 A3001 RMK A01 T02880163  RH  047%=      5-min Rain = 0
KSE2 110300Z 15006KT 29/16 A3001 RMK A01 T02880163  RH  047%=      5-min Rain = 0
KSE2 110301Z 15005KT 29/16 A3001 RMK A01 T02880163  RH  047%=      5-min Rain = 0
KSE2 110302Z 15007KT 29/16 A3001 RMK A01 T02880164  RH  047%=      5-min Rain = 0
KSE2 110303Z 15006KT 29/16 A3001 RMK A01 T02880164  RH  047%=      5-min Rain = 0
KSE2 110304Z 14006KT 29/16 A3001 RMK A01 T02880164  RH  047%=      5-min Rain = 0
KSE2 110305Z 15006KT 29/17 A3001 RMK A01 T02880165  RH  047%=      5-min Rain = 0
KSE2 110306Z 15007KT 29/17 A3001 RMK A01 T02880165  RH  047%=      5-min Rain = 0
KSE2 110307Z 15006KT 29/17 A3001 RMK A01 T02880165  RH  047%=      5-min Rain = 0
KSE2 110308Z 14007KT 29/17 A3001 RMK A01 T02880165  RH  047%=      5-min Rain = 0
KSE2 110309Z 15007KT 29/17 A3001 RMK A01 T02870165  RH  047%=      5-min Rain = 0
KSE2 110310Z 15007KT 29/17 A3001 RMK A01 T02870165  RH  048%=      5-min Rain = 0
KSE2 110311Z 15006KT 29/17 A3001 RMK A01 T02870165  RH  048%=      5-min Rain = 0
KSE2 110312Z 15007KT 29/17 A3001 RMK A01 T02870165  RH  048%=      5-min Rain = 0
KSE2 110313Z 14007KT 29/17 A3001 RMK A01 T02870165  RH  048%=      5-min Rain = 0
KSE2 110314Z 15007KT 29/17 A3001 RMK A01 T02870166  RH  048%=      5-min Rain = 0
KSE2 110315Z 15007KT 29/17 A3001 RMK A01 T02870166  RH  048%=      5-min Rain = 0
KSE2 110316Z 15006KT 29/17 A3002 RMK A01 T02870166  RH  048%=      5-min Rain = 0
KSE2 110317Z 15006KT 29/17 A3002 RMK A01 T02870166  RH  048%=      5-min Rain = 0
KSE2 110318Z 15006KT 29/17 A3002 RMK A01 T02870166  RH  048%=      5-min Rain = 0
KSE2 110319Z 15006KT 29/17 A3002 RMK A01 T02870166  RH  048%=      5-min Rain = 0
KSE2 110320Z 16006KT 29/17 A3002 RMK A01 T02860166  RH  048%=      5-min Rain = 0
KSE2 110321Z 14006KT 29/17 A3002 RMK A01 T02860166  RH  048%=      5-min Rain = 0
KSE2 110322Z 15007KT 29/17 A3002 RMK A01 T02860167  RH  048%=      5-min Rain = 0
KSE2 110323Z 15008KT 29/17 A3002 RMK A01 T02860167  RH  049%=      5-min Rain = 0
KSE2 110324Z 15008KT 29/17 A3002 RMK A01 T02860167  RH  049%=      5-min Rain = 0
KSE2 110325Z 15007KT 29/17 A3002 RMK A01 T02860168  RH  049%=      5-min Rain = 0
KSE2 110326Z 15006KT 29/17 A3002 RMK A01 T02860168  RH  049%=      5-min Rain = 0
KSE2 110327Z 15006KT 29/17 A3002 RMK A01 T02860167  RH  049%=      5-min Rain = 0
KSE2 110328Z 14007KT 29/17 A3002 RMK A01 T02850167  RH  049%=      5-min Rain = 0
KSE2 110329Z 15007KT 29/17 A3002 RMK A01 T02850168  RH  049%=      5-min Rain = 0
KSE2 110330Z 15007KT 29/17 A3002 RMK A01 T02850168  RH  049%=      5-min Rain = 0
KSE2 110331Z 15006KT 29/17 A3002 RMK A01 T02860168  RH  049%=      5-min Rain = 0
KSE2 110332Z 15008KT 29/17 A3002 RMK A01 T02850168  RH  049%=      5-min Rain = 0
KSE2 110333Z 15007KT 29/17 A3002 RMK A01 T02850168  RH  049%=      5-min Rain = 0
KSE2 110334Z 15008KT 29/17 A3002 RMK A01 T02850168  RH  049%=      5-min Rain = 0
KSE2 110335Z 15007KT 29/17 A3002 RMK A01 T02850169  RH  049%=      5-min Rain = 0
KSE2 110336Z 15007KT 29/17 A3002 RMK A01 T02850169  RH  049%=      5-min Rain = 0
KSE2 110337Z 15007KT 29/17 A3002 RMK A01 T02850168  RH  049%=      5-min Rain = 0
KSE2 110338Z 15007KT 29/17 A3002 RMK A01 T02850169  RH  049%=      5-min Rain = 0
KSE2 110339Z 15008KT 29/17 A3002 RMK A01 T02850169  RH  049%=      5-min Rain = 0
KSE2 110340Z 15007KT 28/17 A3002 RMK A01 T02840169  RH  050%=      5-min Rain = 0
KSE2 110341Z 15007KT 28/17 A3002 RMK A01 T02840169  RH  050%=      5-min Rain = 0
KSE2 110342Z 15006KT 28/17 A3002 RMK A01 T02840169  RH  050%=      5-min Rain = 0
KSE2 110343Z 15006KT 28/17 A3002 RMK A01 T02840169  RH  050%=      5-min Rain = 0
KSE2 110344Z 15006KT 28/17 A3002 RMK A01 T02840169  RH  050%=      5-min Rain = 0
KSE2 110345Z 15006KT 28/17 A3002 RMK A01 T02830169  RH  050%=      5-min Rain = 0
KSE2 110346Z 15008KT 28/17 A3002 RMK A01 T02830170  RH  050%=      5-min Rain = 0
KSE2 110347Z 15006KT 28/17 A3002 RMK A01 T02830170  RH  050%=      5-min Rain = 0
KSE2 110348Z 15007KT 28/17 A3002 RMK A01 T02830169  RH  050%=      5-min Rain = 0
KSE2 110349Z 14006KT 28/17 A3002 RMK A01 T02840170  RH  050%=      5-min Rain = 0
KSE2 110350Z 15006KT 28/17 A3002 RMK A01 T02830170  RH  050%=      5-min Rain = 0
KSE2 110351Z 15006KT 28/17 A3002 RMK A01 T02830170  RH  050%=      5-min Rain = 0
KSE2 110352Z 16006KT 28/17 A3002 RMK A01 T02820170  RH  050%=      5-min Rain = 0
KSE2 110353Z 15006KT 28/17 A3002 RMK A01 T02820170  RH  051%=      5-min Rain = 0
KSE2 110354Z 16005KT 28/17 A3002 RMK A01 T02820170  RH  051%=      5-min Rain = 0
KSE2 110355Z 15007KT 28/17 A3002 RMK A01 T02820170  RH  051%=      5-min Rain = 0
KSE2 110356Z 15007KT 28/17 A3002 RMK A01 T02820170  RH  051%=      5-min Rain = 0
KSE2 110357Z 15007KT 28/17 A3002 RMK A01 T02820170  RH  051%=      5-min Rain = 0
KSE2 110358Z 15006KT 28/17 A3002 RMK A01 T02820170  RH  051%=      5-min Rain = 0
KSE2 110359Z 15006KT 28/17 A3002 RMK A01 T02820170  RH  051%=      5-min Rain = 0
KSE2 110400Z 16005KT 28/17 A3002 RMK A01 T02820170  RH  051%=      5-min Rain = 0
KSE2 110401Z 16007KT 28/17 A3002 RMK A01 T02810170  RH  051%=      5-min Rain = 0
KSE2 110402Z 16007KT 28/17 A3002 RMK A01 T02810171  RH  051%=      5-min Rain = 0
KSE2 110403Z 16007KT 28/17 A3002 RMK A01 T02810171  RH  051%=      5-min Rain = 0
KSE2 110404Z 15006KT 28/17 A3002 RMK A01 T02810171  RH  051%=      5-min Rain = 0
KSE2 110405Z 15007KT 28/17 A3002 RMK A01 T02810171  RH  051%=      5-min Rain = 0
KSE2 110406Z 15007KT 28/17 A3002 RMK A01 T02810171  RH  051%=      5-min Rain = 0
KSE2 110407Z 15006KT 28/17 A3003 RMK A01 T02810171  RH  051%=      5-min Rain = 0
KSE2 110408Z 15006KT 28/17 A3003 RMK A01 T02810171  RH  051%=      5-min Rain = 0
KSE2 110409Z 16006KT 28/17 A3003 RMK A01 T02800171  RH  051%=      5-min Rain = 0
KSE2 110410Z 16006KT 28/17 A3003 RMK A01 T02800171  RH  052%=      5-min Rain = 0
KSE2 110411Z 16006KT 28/17 A3003 RMK A01 T02800171  RH  052%=      5-min Rain = 0
KSE2 110412Z 16006KT 28/17 A3003 RMK A01 T02790171  RH  052%=      5-min Rain = 0
KSE2 110413Z 16006KT 28/17 A3003 RMK A01 T02790171  RH  052%=      5-min Rain = 0
KSE2 110414Z 16006KT 28/17 A3003 RMK A01 T02790171  RH  052%=      5-min Rain = 0
KSE2 110415Z 16005KT 28/17 A3003 RMK A01 T02790171  RH  052%=      5-min Rain = 0
KSE2 110416Z 16006KT 28/17 A3003 RMK A01 T02790171  RH  052%=      5-min Rain = 0
KSE2 110417Z 16006KT 28/17 A3003 RMK A01 T02780171  RH  052%=      5-min Rain = 0
KSE2 110418Z 16006KT 28/17 A3003 RMK A01 T02780171  RH  052%=      5-min Rain = 0
KSE2 110419Z 16006KT 28/17 A3003 RMK A01 T02780171  RH  052%=      5-min Rain = 0
KSE2 110420Z 16006KT 28/17 A3003 RMK A01 T02780171  RH  052%=      5-min Rain = 0
KSE2 110421Z 16006KT 28/17 A3003 RMK A01 T02780171  RH  052%=      5-min Rain = 0
KSE2 110422Z 16007KT 28/17 A3003 RMK A01 T02770172  RH  052%=      5-min Rain = 0
KSE2 110423Z 16006KT 28/17 A3003 RMK A01 T02770171  RH  053%=      5-min Rain = 0
KSE2 110424Z 15006KT 28/17 A3003 RMK A01 T02770172  RH  053%=      5-min Rain = 0
KSE2 110425Z 16006KT 28/17 A3003 RMK A01 T02770171  RH  053%=      5-min Rain = 0
KSE2 110426Z 16006KT 28/17 A3003 RMK A01 T02760171  RH  053%=      5-min Rain = 0
KSE2 110427Z 16006KT 28/17 A3003 RMK A01 T02760172  RH  053%=      5-min Rain = 0
KSE2 110428Z 16007KT 28/17 A3003 RMK A01 T02760172  RH  053%=      5-min Rain = 0
KSE2 110429Z 16005KT 28/17 A3003 RMK A01 T02760172  RH  053%=      5-min Rain = 0
KSE2 110430Z 16006KT 28/17 A3003 RMK A01 T02750172  RH  053%=      5-min Rain = 0
KSE2 110431Z 16007KT 28/17 A3003 RMK A01 T02750171  RH  053%=      5-min Rain = 0
KSE2 110432Z 15007KT 28/17 A3003 RMK A01 T02750172  RH  053%=      5-min Rain = 0
KSE2 110433Z 16006KT 28/17 A3002 RMK A01 T02750172  RH  053%=      5-min Rain = 0
KSE2 110434Z 16006KT 27/17 A3002 RMK A01 T02740172  RH  053%=      5-min Rain = 0
KSE2 110435Z 16007KT 27/17 A3002 RMK A01 T02740172  RH  054%=      5-min Rain = 0
KSE2 110436Z 16007KT 27/17 A3002 RMK A01 T02740172  RH  054%=      5-min Rain = 0
KSE2 110437Z 15008KT 27/17 A3002 RMK A01 T02740172  RH  054%=      5-min Rain = 0
KSE2 110438Z 16006KT 27/17 A3002 RMK A01 T02740172  RH  054%=      5-min Rain = 0
KSE2 110439Z 15006KT 27/17 A3002 RMK A01 T02740172  RH  054%=      5-min Rain = 0
KSE2 110440Z 15007KT 27/17 A3002 RMK A01 T02740172  RH  054%=      5-min Rain = 0
KSE2 110441Z 15006KT 27/17 A3002 RMK A01 T02730172  RH  054%=      5-min Rain = 0
KSE2 110442Z 15006KT 27/17 A3002 RMK A01 T02730172  RH  054%=      5-min Rain = 0
KSE2 110443Z 15007KT 27/17 A3002 RMK A01 T02730172  RH  054%=      5-min Rain = 0
KSE2 110444Z 15006KT 27/17 A3002 RMK A01 T02720172  RH  054%=      5-min Rain = 0
KSE2 110445Z 15007KT 27/17 A3002 RMK A01 T02720172  RH  054%=      5-min Rain = 0
KSE2 110446Z 15006KT 27/17 A3002 RMK A01 T02720172  RH  054%=      5-min Rain = 0
KSE2 110447Z 15006KT 27/17 A3002 RMK A01 T02710172  RH  054%=      5-min Rain = 0
KSE2 110448Z 16005KT 27/17 A3002 RMK A01 T02710172  RH  055%=      5-min Rain = 0
KSE2 110449Z 16005KT 27/17 A3002 RMK A01 T02710172  RH  055%=      5-min Rain = 0
KSE2 110450Z 16006KT 27/17 A3002 RMK A01 T02710172  RH  055%=      5-min Rain = 0
KSE2 110451Z 16006KT 27/17 A3002 RMK A01 T02710172  RH  055%=      5-min Rain = 0
KSE2 110452Z 16005KT 27/17 A3002 RMK A01 T02700172  RH  055%=      5-min Rain = 0
KSE2 110453Z 16005KT 27/17 A3002 RMK A01 T02700172  RH  055%=      5-min Rain = 0
KSE2 110454Z 16006KT 27/17 A3002 RMK A01 T02700172  RH  055%=      5-min Rain = 0
KSE2 110455Z 16006KT 27/17 A3002 RMK A01 T02700172  RH  055%=      5-min Rain = 0
KSE2 110456Z 16006KT 27/17 A3002 RMK A01 T02690172  RH  055%=      5-min Rain = 0
KSE2 110457Z 16005KT 27/17 A3003 RMK A01 T02690172  RH  055%=      5-min Rain = 0
KSE2 110458Z 17006KT 27/17 A3003 RMK A01 T02690172  RH  055%=      5-min Rain = 0
KSE2 110459Z 17005KT 27/17 A3003 RMK A01 T02690173  RH  055%=      5-min Rain = 0

Page generated in 0.1219 seconds.